COOLWX HOME

EXTREME HOME

OTHER COOLWX PAGES
    Coolwx Hit Images
    Extreme Weather
    Global Forecasts
    Hourly Model Forecasts
    Mesoscale Analysis
    Obs. Weather Database
    Offshore Weather Data
    Precipitation Type
    Record Breakers
    U.S. Weather Statistics


EXTREME WX CATEGORIES
   CITIES & VALUES:
       Temperature
       Dewpoint
       Heat Index
       Wind
       Wind Chill
       Pressure
       Pressure Change
       Precip Type/Intensity
       Precip Amount
       Thunderstorm
       Blizzard
       Visibility
       Astronomical
       Other
       Multiple
       Unknown
   CITIES & FULL REPORTS:
       Temperature
       Dewpoint
       Heat Index
       Wind
       Wind Chill
       Pressure
       Pressure Change
       Precip Type/Intensity
       Precip Amount
       Thunderstorm
       Blizzard
       Visibility
       Astronomical
       Other
       Multiple
   USA & WORLD PLOTS:
       Temperature
       Dewpoint
       Wind
       Wind Chill & Heat Index
       Pressure
       Pressure Change
       Precip Type/Intensity
       Precip Amount
       Thunderstorm
       Blizzard
       Visibility
       Astronomical
       Other
       Unknown
   REPEAT OFFENDERS:
       Today
       Yesterday
       This month
       This year
       Since 2007
   RSS:
       Feed
   ARCHIVE:
       2024061706
       2024061703
       2024061700
       2024061621
       2024061618
       2024061615
       2024061612
       2024061609
       2024061606
       2024061603
       2024061600
       2024061521
       2024061518
       2024061515
       2024061512
       2024061509
       2024061506
       2024061503
       2024061500
       2024061421
       2024061418
       2024061415
       2024061412
       2024061409

CONTACT
       Bob Hart
       (rhart at fsu.edu)

Extreme & Weird Weather of the World - Archive for 2024061118
Currently using 37049 observations from 5347 unique global stations over the past 3 hours.
Last Updated: Tue Jun 11 18:46:36 UTC 2024



0 stations reporting temperature -55°C or colder

1 station reporting temperature -50°C to -54°C

0 stations reporting temperature -45°C to -49°C

0 stations reporting temperature -40°C to -44°C

0 stations reporting temperature 55°C or warmer

0 stations reporting temperature 50°C to 54°C

8 stations reporting temperature 45°C to 49°C

57 stations reporting temperature 40°C to 44°C


7 stations reporting dewpoint 30°C or greater

32 stations reporting dewpoint 28-29°C

239 stations reporting dewpoint 26-27°C


0 stations reporting wind gusts 70kt or stronger

1 station reporting wind gusts 60-69kt

1 station reporting wind gusts 50-59kt

3 stations reporting wind gusts 40-49kt


1 station reporting (sustained) wind chill of -55°C or colder

0 stations reporting (sustained) wind chill of -50°C to -54°C

0 stations reporting (sustained) wind chill of -45°C to -49°C

0 stations reporting (sustained) wind chill of -40°C to -44°C


1 station reporting heat index of 55°C or hotter

7 stations reporting heat index of 50°C to 54°C

35 stations reporting heat index of 45°C to 49°C

147 stations reporting heat index of 40°C to 44°C


0 stations reporting sea level pressure < 950mb

0 stations reporting sea level pressure 950mb - 959mb

1 station reporting sea level pressure 960mb - 969mb

  • PFTO: UNKNOWN, [966.7mb, 28.54in]    
    PFTO 111756Z AUTO 31006G14KT 10SM FEW120 16/09 A2960 RMK AO2 SLP671 60000 T01560089 10161 20128 51003 $
    PFTO 111656Z AUTO VRB06G15KT 9SM CLR 15/08 A2960 RMK AO2 RAE03 SLP671 P0000 T01500083 $
    PFTO 111556Z AUTO 29007G14KT 250V310 10SM -RA FEW029 BKN095 OVC120 14/08 A2960 RMK AO2 RAB46 SLP670 P0000 T01390083 $
    PFTO 111456Z AUTO 30008G16KT 270V330 9SM FEW100 14/08 A2959 RMK AO2 SLP667 T01390078 56001 $
1 station reporting sea level pressure 970mb - 979mb

  • PACX: UNKNOWN, [970.2mb, 28.64in]    
    PACX 111756Z AUTO 29003KT 10SM BKN100 16/02 A2975 RMK AO2 SLP702 T01610017 10161 20067 58008
    PACX 111656Z AUTO 23003KT 10SM FEW110 14/02 A2976 RMK AO2 SLP706 T01440022
    PACX 111556Z AUTO 00000KT 10SM FEW100 12/02 A2977 RMK AO2 SLP709 T01220022
    PACX 111456Z AUTO 07004KT 10SM CLR 10/02 A2977 RMK AO2 SLP710 T01000017 53002
1 station reporting sea level pressure 980mb - 989mb

  • NZCM: Williams Field, Antarctica [987.7mb, 29.16in]    
    NZCM 111635Z AUTO 12023G29KT 7000 -SN BKN043 OVC055 M17/M21 A2920 RMK AO2 PK WND 12030/1558 SNB1635 SLP895 T11741206 $
    NZCM 111604Z AUTO 12021G30KT 9000 FEW040 OVC055 M17/M21 A2919 RMK AO2 PK WND 12030/1558 SLP891 T11751207 $
    NZCM 111555Z AUTO 13023G28KT 4700 BLSN BR FEW040 OVC055 M18/M21 A2918 RMK AO2 PK WND 14038/1455 SLP889 T11751207 $
    NZCM 111455Z AUTO 13032G39KT 0900 BLSN FZFG BKN027 OVC048 M18/M21 A2915 RMK AO2 PK WND 14039/1448 SNB1411E1417B1435E1436 SLP877 T11761206 50010 $
0 stations reporting sea level pressure > 1055mb

0 stations reporting sea level pressure 1050-1054mb

1 station reporting sea level pressure 1045-1049mb

  • SLPO: Potosi, Bolivia [1045mb, 30.85in]    
    SLPO 111500Z 00000KT 9999 NSC 13/M05 Q1045
3 stations reporting sea level pressure 1040-1044mb

  • SLLP: La Paz / Alto, Bolivia [1042mb, 30.76in]    
    SLLP 111700Z 21004KT 9999 NSC 15/M10 Q1040
    SLLP 111600Z VRB02KT 9999 NSC 13/M11 Q1041
    SLLP 111500Z VRB02KT 9999 NSC 11/M11 Q1042
  • SLPO: Potosi, Bolivia [1044mb, 30.82in]    
    SLPO 111800Z 24003KT 9999 NSC 16/M05 Q1043
    SLPO 111700Z 00000KT 9999 NSC 16/M03 Q1044
    SLPO 111600Z 00000KT 9999 NSC 15/M04 Q1044
  • SPJL: Juliaca, Peru [1040mb, 30.70in]    
    SPJL 111500Z VRB02KT CAVOK 12/M07 Q1040 RMK BIRD HAZARD RWY 12/30 PP000
7 stations reporting sea level pressure 1035-1039mb

  • FDMY: Mayiwane, Swaziland [1039mb, 30.68in]    
    FDMY 111700Z AUTO 06002KT //// // ////// 16/09 Q1039
    FDMY 111600Z AUTO 03002KT //// // ////// 17/09 Q1038
  • SLLP: La Paz / Alto, Bolivia [1039mb, 30.68in]    
    SLLP 111800Z 24004KT 9999 FEW020 SCT200 16/M11 Q1039
  • SLOR: Oruro, Bolivia [1038mb, 30.65in]    
    SLOR 111600Z 22005KT 9999 NSC 11/M06 Q1038
    SLOR 111500Z 18005KT 9999 NSC 11/M07 Q1038
  • SPHY: Andahuayla, Peru [1037mb, 30.62in]    
    SPHY 111800Z 05009KT CAVOK 17/03 Q1035 RMK BIRD HAZARD RWY03/21 PP000
    SPHY 111700Z 01008KT CAVOK 16/02 Q1036 RMK BIRD HAZARD RWY03/21 PP000
    SPHY 111600Z 01006KT CAVOK 15/00 Q1037 RMK BIRD HAZARD RWY03/21 PP000
    SPHY 111500Z 02006KT CAVOK 13/M01 Q1037 RMK BIRD HAZARD RWY03/21 PP000
  • SPJJ: Jauja, Peru [1037mb, 30.62in]    
    SPJJ 111600Z 12003KT 9999 FEW040 16/02 Q1036 RMK PP000
    SPJJ 111500Z 11006KT 9999 FEW040 14/00 Q1037 RMK PP000
  • SPJL: Juliaca, Peru [1039mb, 30.68in]    
    SPJL 111800Z VRB04KT CAVOK 16/M08 Q1037 RMK BIRD HAZARD RWY 12/30 PP000
    SPJL 111700Z VRB03KT CAVOK 15/M04 Q1038 RMK BIRD HAZARD RWY 12/30 PP000
    SPJL 111600Z VRB04KT CAVOK 13/M02 Q1039 RMK BIRD HAZARD RWY 12/30 PP000
  • SPZO: Cuzco, Peru [1037mb, 30.62in]    
    SPZO 111600Z 36003KT 300V060 9999 NSC 17/M06 Q1035 NOSIG RMK BIRD HAZARD RWY 10/28 PP000
    SPZO 111530Z 04004KT 340V070 9999 NSC 15/M04 Q1036 NOSIG RMK BIRD HAZARD RWY 10/28
    SPZO 111500Z 08003KT 9999 NSC 14/M04 Q1037 NOSIG RMK BIRD HAZARD RWY 10/28 PP000


0 stations reporting 3-hourly pressure fall of 10mb or greater

0 stations reporting 3-hourly pressure fall of 5mb to 9.9mb

5 stations reporting 3-hourly pressure rise of 5mb to 9.9mb

  • CWEK: Grey Islet, Canada [6.0mb]
    CWEK 111700Z AUTO 14005KT 11/11 RMK AO1 0PAST HR 3008 SLP056 P0004 T01070106 50056
    CWEK 111800Z AUTO 00000KT 11/11 RMK AO1 4PAST HR 3014 SLP063 P0002 T01120110 50060
  • CWHL: Holland Rock, Canada [8.2mb]
    CWHL 111500Z AUTO 01002KT 10/10 RMK AO1 2PAST HR 5004 SLP046 P0009 T01010096 50056
    CWHL 111600Z AUTO 02005KT 10/10 RMK AO1 6PAST HR 3003 SLP049 P0006 T01010097 50072
    CWHL 111700Z AUTO 01002KT 10/10 RMK AO1 8PAST HR 3008 SLP053 P0003 T01040099 50080
    CWHL 111800Z AUTO 29003KT 11/10 RMK AO1 2PAST HR 3014 SLP060 P0001 T01060100 50082
  • CWJD: Grand Rapids, Man., Canada [6.8mb]
    CWJD 111500Z AUTO 02006G15KT 11/11 RMK AO1 7PAST HR 3003 SLP000 P0003 T01090106 50051
    CWJD 111600Z AUTO 36005KT 11/11 RMK AO1 4PAST HR 3008 SLP003 P0005 T01110107 50064
    CWJD 111700Z AUTO 36001KT 12/12 RMK AO1 4PAST HR 1009 SLP006 P0002 T01240120 50068
    CWJD 111800Z AUTO 32004KT 13/13 RMK AO1 0003 SLP002 T01250127 50068
  • CWJU: Langara, B. C., Canada [5.3mb]
    CWJU 111800Z AUTO 32018G23KT 08/08 RMK AO1 4PAST HR 3019 PK WND 32029/1712 SLP084 P0002 T00840077 50053
  • CWWL: Bonilla Island, Canada [9.6mb]
    CWWL 111500Z AUTO 04003KT 11/10 RMK AO1 2PAST HR 5003 SLP034 P0009 T01070104 50072
    CWWL 111600Z AUTO 04003KT 11/11 RMK AO1 8PAST HR 3004 SLP038 P0003 T01120109 50080
    CWWL 111700Z AUTO 09004KT 11/11 RMK AO1 6PAST HR 3011 SLP044 P0006 T01110107 50096
2 stations reporting 3-hourly pressure rise of 10mb or greater

  • CWWL: Bonilla Island, Canada [10.4mb]
    CWWL 111800Z AUTO 12005KT 11/11 RMK AO1 8PAST HR 3018 SLP052 P0003 T01140107 50104
  • CWZL: Cumshewa Island, Canada [17.0mb]
    CWZL 111500Z AUTO 09005KT 11/10 RMK AO1 6PAST HR 3002 SLP040 P0026 T01090104 50118
    CWZL 111600Z AUTO 35011G18KT 11/10 RMK AO1 8PAST HR 3008 PK WND 02018/1559 SLP045 P0011 T01060100 50146
    CWZL 111700Z AUTO 33013G20KT 10/09 RMK AO1 0PAST HR 3018 PK WND 32020/1659 SLP054 P0008 T01030091 50166
    CWZL 111800Z AUTO 33012KT 11/09 RMK AO1 4PAST HR 3027 PK WND 34025/1709 SLP067 P0002 T01060093 50170


0 stations reporting heavy snow

0 stations reporting any sleet

0 stations reporting any freezing rain

52 stations reporting heavy rain

  • EFKS: Kuusamo, Finland
    EFKS 111820Z AUTO VRB02KT 8000 3800 +SHRA OVC027 //////CB 10/09 Q1000
  • EFSA: Savonlinna, Finland
    EFSA 111750Z AUTO 29006KT 9999 +SHRA FEW016 OVC038 //////CB 13/09 Q1003
  • ESNG: Gallivare, Sweden
    ESNG 111820Z AUTO 11011KT 9999 +RA SCT040/// BKN053/// 13/08 Q0999
  • ESNN: Sundsvall-Harnosand Flygplats, Sweden
    ESNN 111820Z 36012KT 330V030 6000 +RA FEW011 SCT027CB BKN035 12/09 Q1001
  • EVVA: Ventspils, Latvia
    EVVA 111450Z AUTO 23005KT 7000 +RA FEW010 OVC015 13/12 Q1005
  • K6P9: Ranger, TX, United States
    K6P9 111515Z AUTO 25006KT 2SM +RA BKN006 BKN009 OVC014 19/09 A3002 RMK AO2 P0047 T01900086
    K6P9 111615Z AUTO 00000KT 1 1/2SM +RA SCT070 BKN080 OVC090 19/16 A3001 RMK AO2 VIS 3/4V4 P0007 T01870158
  • K7W6: Hyde County Airport, NC, United States
    K7W6 111805Z AUTO 35018G26KT 2SM +RA SCT027 BKN048 OVC110 24/19 A2990 RMK AO2 VIS 1V5 P0009 T02350194
  • KAAF: Apalachicola, Apalachicola, FL, United States
    KAAF 111835Z AUTO 28009G20KT 1SM +RA BR FEW013 BKN022 OVC070 27/26 A2984 RMK AO2 RAB17 P0008 T02720256
    KAAF 111842Z AUTO 23010KT 1/2SM +RA FG FEW013 BKN023 OVC100 27/26 A2983 RMK AO2 RAB17 P0033 T02720261
  • KAPF: Naples, Naples Municipal Airport, FL, United States
    KAPF 111649Z 14004KT 2 1/2SM +RA BR FEW008 BKN040 OVC090 26/26 A2992 RMK AO2 LTG DSNT SW P0027
    KAPF 111653Z 14010KT 2 1/2SM +RA BR FEW006 BKN035 OVC090 26/26 A2993 RMK AO2 LTG DSNT SW SLP132 P0034 T02560256
    KAPF 111657Z 13008KT 110V180 3/4SM +RA BR FEW006 BKN019 OVC090 26/26 A2992 RMK AO2 LTG DSNT SW P0015 T02560256
    KAPF 111709Z 16007KT 2SM +RA BR FEW007 SCT013 OVC032 26/26 A2992 RMK AO2 P0024 T02560256
    KAPF 111714Z 18005KT 3/4SM +RA BR SCT007 SCT016 OVC027 25/25 A2992 RMK AO2 P0031 T02500250
    KAPF 111736Z 17006KT 1SM +RA BR FEW007 OVC017 24/24 A2992 RMK AO2 P0083 T02440244
    KAPF 111751Z 20008KT 1/2SM +RA FG VV018 24/24 A2991 RMK AO2 LTG DSNT S P0122
    KAPF 111753Z 21008KT 3/4SM +RA BR VV017 24/24 A2991 RMK AO2 LTG DSNT S SLP128 P0129 60226 T02390239 10261 20239 58001
    KAPF 111800Z 24006KT 1SM +RA BR OVC020 24/24 A2991 RMK AO2 P0009 T02440244
  • KASX: Ashland, Kennedy Memorial Airport, WI, United States
    KASX 111653Z AUTO VRB05KT 2 1/2SM +RA FEW048 BKN060 OVC075 13/11 A2985 RMK AO2 RAE21B43 SLP113 P0004 T01330106
  • KBKV: Brooksville, Hernando County Airport, FL, United States
    KBKV 111731Z 00000KT 2 1/2SM +RA BR BKN035 BKN042 OVC050 27/26 A2988 RMK AO2 VIS 1 1/4V5 LTG DSNT ALQDS P0004 T02670256 $
    KBKV 111738Z 22010G15KT 1 1/2SM +RA BR FEW006 SCT019 OVC037 26/26 A2989 RMK AO2 LTG DSNT ALQDS P0012 T02610256 $
  • KCGC: Crystal River, FL, United States
    KCGC 111455Z AUTO 00000KT 3/4SM +RA BKN014 BKN020 OVC026 25/23 A2988 RMK AO2 LTG DSNT SW P0100
    KCGC 111755Z AUTO 00000KT 7SM +RA SCT015 BKN022 OVC041 28/25 A2987 RMK AO2 LTG DSNT S P0002
  • KEYW: Key West, Key West Intl Arpt, FL, United States
    KEYW 111742Z 19012G28KT 2SM +RA FEW014 BKN027 OVC100 27/24 A2989 RMK AO2 PK WND 19028/1736 LTG DSNT S RAB1656 P0000 T02670239
  • KFDR: Frederick, Frederick Municipal Airport, OK, United States
    KFDR 111751Z AUTO 00000KT 3/4SM +RA BR SCT016 OVC030 22/21 A2996 RMK AO2 LTG DSNT S RAB1657 P0025
    KFDR 111753Z AUTO 00000KT 3/4SM +RA BR SCT016 OVC030 21/21 A2996 RMK AO2 LTG DSNT S RAB1657 SLP131 P0029 60029 T02110206 10233 20206 53005
    KFDR 111801Z AUTO 04004KT 1SM +RA BR FEW016 BKN028 OVC042 22/21 A2996 RMK AO2 LTG DSNT S P0007 T02170206
  • KFLL: Fort Lauderdale/Hollywood, FL, United States
    KFLL 111622Z 20007KT 4SM R10L/3500VP6000FT +RA BR SCT040 BKN055 OVC070 25/24 A2994 RMK AO2 CB ALQDS MOV NE P0020 T02500239
    KFLL 111622Z COR 20007KT 4SM R10L/3500VP6000FT +RA BR SCT027 BKN055 OVC090 25/24 A2994 RMK AO2 VIS NE-SE 2 CB ALQDS MOV NE P0020 T02500239
  • KFMY: Fort Myers, Page Field, FL, United States
    KFMY 111721Z 21014G22KT 2 1/2SM +RA BR SCT090 BKN110 26/24 A2988 RMK AO2 P0009 T02560244
  • KFXE: Fort Lauderdale, FL, United States
    KFXE 111453Z 26008KT 3SM VCTS +RA BR FEW009 BKN018 OVC050 25/24 A2994 RMK AO2 LTG DSNT E-S RAB26 SLP141 P0030 60052 T02500244 53009
    KFXE 111503Z 25017G26KT 1/4SM +RA FG FEW007 BKN014 OVC030 25/24 A2994 RMK AO2 PK WND 26026/1502 LTG DSNT SE AND S P0011 T02500239
    KFXE 111510Z 26015G26KT 1/4SM +RA FG FEW012 OVC019 25/24 A2994 RMK AO2 PK WND 24026/1506 LTG DSNT SE AND S P0024 T02500244
    KFXE 111517Z 27010G25KT 1/4SM VCTS +RA FG FEW015 BKN031 OVC075 25/24 A2994 RMK AO2 PK WND 24026/1506 LTG DSNT SE P0028 T02500244
    KFXE 111550Z 22007KT 1/4SM +RA FG BKN009 25/24 A2995 RMK AO2 PK WND 24026/1506 P0041
    KFXE 111551Z 22006KT 1/4SM +RA FG BKN009 25/24 A2995 RMK AO2 PK WND 24026/1506 SLP143 P0042 T02500244
    KFXE 111558Z 22004KT 2SM +RA BR BKN011 OVC075 26/25 A2994 RMK AO2 P0003 T02560250
  • KHAI: Three Rivers, MI, United States
    KHAI 111455Z AUTO 00000KT 10SM +RA CLR 19/07 A3004 RMK AO2 T01850067
    KHAI 111515Z AUTO 27005KT 10SM +RA CLR 18/05 A3003 RMK AO2 T01770050
    KHAI 111535Z AUTO 24005KT 10SM +RA CLR 18/06 A3003 RMK AO2 T01840056
    KHAI 111655Z AUTO 00000KT 10SM +RA CLR 20/01 A3002 RMK AO2 T01990013
    KHAI 111715Z AUTO 28003KT 10SM +RA CLR 21/01 A3002 RMK AO2 T02070010
  • KHWO: Hollywood, North Perry Airport, FL, United States
    KHWO 111550Z 24009G16KT 1 3/4SM +RA SCT041 BKN070 OVC110 26/23 A2996 RMK AO2 VIS 1V4 RAEMMB22 P0019 $
    KHWO 111553Z 1 1/2SM +RA SCT039 BKN070 OVC110 26/23 A2996 RMK AO2 RAEMMB22RAEMMB53 SLP145 P0023 T02610233 $
    KHWO 111653Z 19006KT 3SM +RA FEW045 BKN080 OVC100 27/24 A2995 RMK AO2 LTG DSNT E AND SE RAEMMB16RAEMMB31 SLP142 P0029 T02670239 $
  • KINF: Inverness, FL, United States
    KINF 111835Z AUTO 35005KT 1SM +RA BKN017 OVC027 26/26 A2986 RMK AO2 LTG DSNT SE
  • KLBX: Angleton, TX, United States
    KLBX 111818Z AUTO 11011G21KT 1 3/4SM +RA BR FEW018 BKN032 OVC040 27/25 A2989 RMK AO2 RAB09 PRESRR P0020 T02720250
    KLBX 111824Z AUTO 1/4SM +RA FG SCT011 BKN032 OVC080 25/24 A2991 RMK AO2 PK WND 13029/1820 RAB09 PRESRR P0074 T02500239
    KLBX 111828Z AUTO 11012G29KT 060V140 1/4SM +RA FG BKN009 BKN030 OVC038 24/23 A2991 RMK AO2 PK WND 14029/1827 RAB09 P0116 T02440233
    KLBX 111838Z AUTO 18008G23KT 1/2SM +RA FG BKN011 BKN033 OVC110 24/23 A2988 RMK AO2 PK WND 14029/1827 RAB09 P0159 T02440228
  • KMIA: Miami, Miami Intl Arpt, FL, United States
    KMIA 111553Z 26005KT 4SM +RA BR SCT005 BKN011CB OVC035 26/25 A2994 RMK AO2 SLP138 CB OHD-SW-NW-N MOV N P0020 T02560250 $
    KMIA 111559Z VRB05KT 2 1/2SM +RA BR BKN005 OVC017CB 26/24 A2994 RMK AO2 CB OHD-SW-NW-N MOV NE P0003 T02560244 $
    KMIA 111602Z 32004KT 1 1/2SM +RA BR BKN005 OVC017CB 26/24 A2994 RMK AO2 CB OHD-SW-NW-N MOV NE P0007 T02560244 $
    KMIA 111623Z 00000KT 3SM +RA BR SCT005 BKN014CB OVC050 25/25 A2994 RMK AO2 CB OHD-W-N MOV NE P0023 T02500250 $
    KMIA 111818Z VRB03KT 1 3/4SM +RA FEW005 SCT015CB OVC080 26/26 A2991 RMK AO2 CB SE AND SW MOV NE P0018 T02610256 $
    KMIA 111824Z 00000KT 2SM +RA BR SCT005 SCT015CB OVC045 26/26 A2991 RMK AO2 CB NE-SE-SW MOV NE P0018 T02610256 $
  • KMNZ: Hamilton, TX, United States
    KMNZ 111715Z AUTO 30008KT 4SM +RA 21/21 A3000 RMK AO2 P0008 T02080208 TSNO
  • KMWL: Mineral Wells, Mineral Wells Airport, TX, United States
    KMWL 111629Z AUTO 27009KT 3/4SM VCTS +RA BR FEW008 BKN021 OVC030 20/19 A2999 RMK AO2 LTG DSNT ALQDS TSB14E29 P0057 T02000189
    KMWL 111635Z AUTO 27006G18KT 1SM +RA BR FEW008 BKN021 OVC034 20/19 A2999 RMK AO2 LTG DSNT ALQDS TSB14E29 P0061 T02000189
    KMWL 111643Z AUTO 22008KT 1SM VCTS +RA BR FEW019 BKN026 OVC034 20/19 A2998 RMK AO2 LTG DSNT ALQDS TSB14E29 P0070 T02000189
    KMWL 111726Z AUTO 36006KT 2SM VCTS +RA BR SCT075 OVC090 20/19 A2997 RMK AO2 LTG DSNT ALQDS TSE1659B02E17 P0011 T02000189
  • KOPF: Miami, Opa Locka Airport, FL, United States
    KOPF 111500Z 29009KT 7SM +RA FEW012 BKN048 OVC090 25/24 A2994 RMK AO2 LTG DSNT N AND E P0003 T02440239 $
    KOPF 111540Z 28010KT 1SM +RA BR FEW015 BKN048 OVC090 25/24 A2995 RMK AO2 LTG DSNT NE P0023 T02440239 $
    KOPF 111551Z 29010KT 1SM +RA BR BKN015 BKN048 OVC090 25/24 A2995 RMK AO2 P0045 $
    KOPF 111553Z 27009KT 1SM +RA BR BKN015 BKN048 OVC090 25/24 A2995 RMK AO2 SLP141 P0050 T02440239 $
    KOPF 111606Z 21012G21KT 1/2SM +RA FG VV017 25/24 A2995 RMK AO2 P0056 T02440244 $
    KOPF 111633Z 23005KT 2 1/2SM +RA BR BKN030 OVC060 25/24 A2995 RMK AO2 P0088 T02440244 $
    KOPF 111836Z 00000KT 3SM VCTS +RA BR FEW015 BKN043 OVC075 26/26 A2992 RMK AO2 P0013 T02610256 $
  • KPIE: St. Petersburg / Clearwater, FL, United States
    KPIE 111621Z 16007G27KT 1 3/4SM +RA BR BKN022 BKN036 BKN060 27/26 A2986 RMK AO2 PK WND 19027/1612 LTG DSNT N AND NW RAB17 P0004 T02670256
  • KPMP: Pompano Beach, FL, United States
    KPMP 111453Z 27012G25KT 1 3/4SM VCTS +RA BR SCT011 BKN017 OVC048 25/23 A2996 RMK AO2 LTG DSNT E-S RAB49 SLP145 P0027 60083 T02500233 51019
    KPMP 111501Z 32005KT 1SM +RA BR BKN011 OVC020 24/23 A2995 RMK AO2 LTG DSNT SE AND S P0026 T02440233
    KPMP 111514Z 26009G17KT 2SM VCTS +RA BR BKN011 OVC017 24/23 A2996 RMK AO2 LTG DSNT SE AND S P0037 T02440233
    KPMP 111519Z 25005G17KT 2SM VCTS +RA BR SCT009 OVC018 24/23 A2995 RMK AO2 LTG DSNT SE AND S P0046 T02440233
  • KRPH: Graham, Graham Municipal Airport, TX, United States
    KRPH 111455Z AUTO 28009KT 5SM +RA BR SCT009 OVC014 21/20 A2995 RMK AO2 OVC V BKN P0003 60003 T02090200 53012
    KRPH 111515Z AUTO 28003KT 1 1/4SM +RA BR OVC029 20/20 A2996 RMK AO2 P0003 T02000196
  • KSJT: San Angelo, Mathis Field, TX, United States
    KSJT 111703Z 02010KT 1 1/2SM +RA FEW030 BKN040 OVC100 24/21 A2998 RMK AO2 RAB1652 P0003 T02390211
  • KSPG: St. Petersburg, Whitted Airport, FL, United States
    KSPG 111625Z 23012G32KT 1 3/4SM +RA BR FEW011 BKN018 OVC041 27/25 A2985 RMK AO2 PK WND 23032/1620 RAB21 P0005 T02670250
  • KSUW: Superior, Richard I. Bong Airport, WI, United States
    KSUW 111455Z AUTO 09006KT 3SM +RA SCT035 BKN045 OVC050 09/08 A2985 RMK AO2 T00900080
  • KTMB: Miami, Kendall-Tamiami Executive Airport, FL, United States
    KTMB 111453Z 00000KT 2 1/2SM +RA BR SCT055 BKN070 BKN100 26/26 A2992 RMK AO2 LTG DSNT NE AND E SLP131 P0013 60014 T02610261 53007 $
    KTMB 111514Z VRB04KT 1 1/2SM +RA BR FEW023 BKN037 OVC070 27/26 A2994 RMK AO2 LTG DSNT NE P0014 T02670256 $
    KTMB 111553Z 00000KT 2SM +RA BR BKN009 OVC055 26/25 A2993 RMK AO2 SLP135 P0027 T02610250 $
    KTMB 111758Z VRB03KT 2 1/2SM VCTS +RA BR FEW004 BKN010 OVC050 26/26 A2991 RMK AO2 LTG DSNT E AND S TSE55 P0003 T02610261 $
    KTMB 111802Z 34005KT 1 3/4SM VCTS +RA BR BKN007 BKN015 OVC045 26/26 A2991 RMK AO2 LTG DSNT E TSE1755 P0008 T02610261 $
    KTMB 111810Z 36007KT 1 3/4SM +RA BR BKN007 BKN015 OVC033 26/26 A2989 RMK AO2 LTG DSNT E AND W TSE1755 P0015 T02610261 $
  • KTPF: Tampa, Knight Airport, FL, United States
    KTPF 111835Z AUTO 23007KT 1SM +RA BKN008 OVC012 26/23 A2988 RMK AO2 P0028
  • KTTS: NASA Shuttle Facility, FL, United States
    KTTS 111730Z AUTO 07008KT 3/4SM R15/2600VP6000FT +RA BKN017 OVC029 27/25 A2984 RMK AO2 VIS 3/4V2 3/4 RAE1657DZB1657E1658RAB1658E09DZB09E22RAB22 CIG 017V026 BKN V SCT SLP109 $
    KTTS 111756Z AUTO 20013KT 3/8SM R15/2600V3000FT +RA BR VV010 25/24 A2985 RMK AO2 LTG DSNT SE TSE56 CIG 010V014 SLP112 $
    KTTS 111801Z AUTO 19013G18KT 3/8SM R15/2400V3000FT +RA BR VV009 25/24 A2985 RMK AO2 LTG DSNT SE TSE1756 CIG 009V011 SLP112 $
    KTTS 111836Z AUTO 18011G21KT 3/4SM R15/3000VP6000FT VCTS +RA BR VV015 25/24 A2985 RMK AO2 TSE1756TSB02E36 SLP112 $
  • KU52: Beaver, UT, United States
    KU52 111455Z AUTO 33003KT 10SM +RA CLR 19/01 A3019 RMK AO2
    KU52 111515Z AUTO 02004KT 10SM +RA CLR 20/M01 A3019 RMK AO2
    KU52 111535Z AUTO 01004KT 10SM +RA CLR 21/M01 A3019 RMK AO2
    KU52 111555Z AUTO 02004KT 10SM +RA CLR 23/00 A3018 RMK AO2
    KU52 111635Z AUTO 33004KT 10SM +RA CLR 25/M03 A3017 RMK AO2
  • KUBE: Cumberland, WI, United States
    KUBE 111455Z AUTO 16011G17KT 5SM +RA SCT035 BKN044 OVC050 12/10 A2988 RMK AO2 P0003
  • KVDF: Tampa, Vandenberg Airport, FL, United States
    KVDF 111615Z AUTO 1 1/2SM +RA BKN023 OVC032 26/25 A2988 RMK AO2 VIS 1V3 P0001
    KVDF 111735Z AUTO 17012G20KT 7SM +RA BKN011 BKN022 OVC039 26/25 A2990 RMK AO2
    KVDF 111755Z AUTO 4SM +RA SCT011 BKN055 OVC070 25/23 A2990 RMK AO2
  • KVRB: Vero Beach, FL, United States
    KVRB 111449Z 25015G28KT 1SM VCTS +RA BR SCT022 BKN035 OVC065 25/23 A2990 RMK AO2 PK WND 24028/1441 WSHFT 1435 VIS 1/2V2 LTG DSNT S RAB36 P0008
  • KXMR: Cape Kennedy, FL, United States
    KXMR 111745Z AUTO 21011KT 2 1/4SM VCTS +RA BR FEW002 OVC043 25/24 A2984 RMK AO2 VIS 2 1/4V4 VIS 1 RWY13 DZE1655DZB20E26RAB26 SLP108 $
    KXMR 111750Z AUTO 21010KT 1 5/8SM VCTS +RA BR FEW002 OVC043 25/24 A2983 RMK AO2 VIS 1 5/8V3 DZE1655DZB20E26RAB26 SLP104 $
    KXMR 111755Z AUTO 22010KT 1 1/2SM VCTS +RA BR FEW002 25/24 A2983 RMK AO2 DZE1655DZB20E26RAB26 SLP104 P0087 60087 T02500238 10317 20248 57006 $
    KXMR 111800Z AUTO 24010KT 2 1/4SM +RA BR SCT003 25/24 A2983 RMK AO2 VIS 1 1/2V2 1/4 VIS 1 1/2 RWY13 SLP104 $
  • KZPH: Zephyrhills, FL, United States
    KZPH 111815Z AUTO 22013G22KT 2 1/2SM +RA BR SCT009 BKN024 OVC034 25/24 A2990 RMK A02 LTG DSNT SW T02530244
    KZPH 111835Z AUTO 19010KT 3SM +RA BR SCT007 BKN028 OVC085 24/24 A2988 RMK A02 LTG DSNT E AND SE T02440239
  • LEAL: Alicante / El Altet, Spain
    LEAL 111621Z 36010KT 330V030 3000 +SHRA FEW015CB BKN025 20/17 Q1014
  • LEBA: Cordoba / Aeropuerto, Spain
    LEBA 111521Z 32007G17KT 4000 TS +SHRA FEW030 FEW034CB SCT035CB 21/15 Q1014
  • LEBL: Barcelona / Aeropuerto, Spain
    LEBL 111700Z 14003KT 4000 +SHRA FEW005 FEW013TCU BKN015 16/15 Q1015 NOSIG
  • LRSV: Suceava / Salcea, Romania
    LRSV 111630Z 33012KT 2000 +SHRA VCTS FEW008 BKN032CB 18/17 Q1009
  • LSZS: Samedan, Switzerland
    LSZS 111550Z 17011KT 140V200 5000 +RA BKN036TCU 08/05 Q1014 RMK U TL170
  • MMTL: Tulancingo, Mexico
    MMTL 111522Z 00000KT 1SM +RA OVC015CB 27/26 A2986 RMK 8/3// RAB22
  • MUHA: Habana, Cuba
    MUHA 111746Z 19012G27KT 140V230 2000 R06/P2000D R24/P2000D +RA FEW015CB BKN020 26/24 Q1013 RMK CB AT III QUAD AD
  • PANN: Nenana, Nenana Municipal Airport, AK, United States
    PANN 111710Z AUTO 00000KT 1 3/4SM +RA BR OVC065 11/09 A2964 RMK AO2 P0003 T01060094 TSNO
  • ROAH: Naha Airport, Japan
    ROAH 111721Z AUTO 29007KT 250V320 5000 R18L/1600VP2000D R18R/1100VP2000D +RA BR FEW002 BKN010 BKN050 //////CB 25/25 Q1006 RMK A2972 RI015 CB OHD MOV E TCU 35KM E MOV NE
  • SMJP: Johan A. Pengel, Suriname
    SMJP 111712Z 23005KT 1000 +SHRA SCT012 FEW015CB 27/25 Q1012
  • TXKF: Bermuda, Bermuda
    TXKF 111828Z 21010KT 180V240 1400 R12/P2000N +SHRA BR BKN006TCU OVC015 25/25 Q1017
    TXKF 111834Z 21011KT 1400 R12/P2000N +SHRA VCTS BKN007CB OVC024 25/25 Q1017
  • UUDL: Yaroslavl Tunoshna Airport, Russia
    UUDL 111818Z 26005MPS 0800 R23/1200D +SHRA BKN013CB 18/18 Q1007 R23/290355 NOSIG RMK QFE747
10 stations reporting unknown precipitation type

  • K6S2: Florence, OR, United States
    K6S2 111735Z AUTO 28004KT 2 1/2SM UP BR BKN012 BKN016 13/13 A3016 RMK AO2
    K6S2 111815Z AUTO 27005KT 2SM UP BR SCT005 BKN013 13/13 A3017 RMK AO2
    K6S2 111835Z AUTO 27005KT 3/4SM UP BR OVC004 13/13 A3017 RMK AO2
  • KDYT: Duluth, Sky Harbor Airport, MN, United States
    KDYT 111615Z AUTO 03012KT 1 3/4SM UP BR OVC005 09/09 A2982 RMK AO2
  • KGOP: Gatesville, City-County Airport, TX, United States
    KGOP 111835Z AUTO 31006G21KT 9SM VCTS UP FEW004 SCT014 BKN020 21/21 A2999 RMK AO2 LTG DSNT ALQDS
  • KIZA: Santa Ynez, Santa Ynez Airport, CA, United States
    KIZA 111455Z AUTO 00000KT 1/2SM UP BR OVC002 11/11 A2991 RMK AO2
    KIZA 111515Z AUTO 00000KT 1 1/4SM UP BR OVC003 11/11 A2991 RMK AO2 VIS 1/2V3
  • KSPK: Spanish Fork, UT, United States
    KSPK 111755Z AUTO 26003KT 2SM UP HZ CLR 26/10 A3010 RMK AO2 VIS 3/4V5
  • KTMK: Tillamook, OR, United States
    KTMK 111455Z AUTO 14003KT 1 1/4SM UP BR FEW004 BKN014 12/12 A3011 RMK AO2
    KTMK 111515Z AUTO 09005KT 2 1/2SM UP BR BKN014 12/12 A3012 RMK AO2
    KTMK 111535Z AUTO 00000KT 2SM UP BR FEW006 BKN012 12/12 A3012 RMK AO2
    KTMK 111555Z AUTO 16004KT 1 1/4SM UP BR SCT005 BKN012 BKN019 12/12 A3012 RMK AO2 P0001
    KTMK 111835Z AUTO 24009KT 4SM UP BR OVC017 14/14 A3017 RMK AO2
  • PAIW: Wales, AK, United States
    PAIW 111452Z AUTO 04014KT 1/2SM UP FG OVC002 00/00 RMK AO2 P0000 FZRANO $
    PAIW 111456Z AUTO 05015KT 1/2SM UP FG OVC002 00/00 RMK AO2 SLPNO P0000 60000 T00000000 FZRANO $
    PAIW 111556Z AUTO 05013KT 1/2SM UP FG OVC002 00/00 RMK AO2 SLPNO P0000 T00000000 FZRANO $
    PAIW 111651Z AUTO 04014KT 1SM UP BR OVC002 00/00 RMK AO2 VIS 1/2V2 P0000 FZRANO $
    PAIW 111656Z AUTO 04014KT 1 1/2SM UP BR OVC002 00/00 RMK AO2 VIS 1V4 SLPNO P0000 T00000000 FZRANO $
    PAIW 111723Z AUTO 05013KT 3/4SM UP BR OVC002 00/00 RMK AO2 UPE1659B20 P0000 FZRANO $
    PAIW 111747Z AUTO 05014KT 1 1/4SM UP BR OVC002 00/00 RMK AO2 VIS 1/2V2 1/2 UPE1659B20 P0000 FZRANO $
  • PAMY: Mekoryuk, Mekoryuk Airport, AK, United States
    PAMY 111456Z AUTO 29012KT 1/4SM UP FG OVC002 01/01 A2981 RMK AO2 SLP092 P0000 60000 T00110011 53003 FZRANO $
    PAMY 111504Z AUTO 29009KT 3/4SM UP BR OVC002 01/01 A2981 RMK AO2 P0000 FZRANO $
    PAMY 111511Z AUTO 27010KT 1/4SM UP FG OVC002 02/01 A2981 RMK AO2 P0000 FZRANO $
    PAMY 111522Z AUTO 28011KT 3/4SM UP BR OVC002 02/01 A2981 RMK AO2 P0000 FZRANO $
    PAMY 111551Z AUTO 27010KT 1/2SM UP FG OVC002 02/02 A2981 RMK AO2 P0000 FZRANO $
    PAMY 111556Z AUTO 27011KT 1/2SM UP FG OVC002 02/02 A2981 RMK AO2 SLP093 P0000 T00170017 FZRANO $
    PAMY 111607Z AUTO 27011KT 1SM UP BR OVC002 02/02 A2981 RMK AO2 VIS 1/2V1 3/4 P0000 FZRANO $
    PAMY 111619Z AUTO 27013KT 3/4SM UP BR OVC002 02/02 A2981 RMK AO2 P0000 FZRANO $
    PAMY 111631Z AUTO 28011KT 1/2SM UP FG OVC002 02/02 A2981 RMK AO2 P0000 FZRANO $
    PAMY 111649Z AUTO 26009KT 3/4SM UP BR OVC002 02/02 A2982 RMK AO2 P0000 FZRANO $
    PAMY 111652Z AUTO 26010KT 1 1/4SM UP BR OVC002 02/02 A2982 RMK AO2 P0000 FZRANO $
    PAMY 111656Z AUTO 27008KT 3SM UP BR OVC002 02/02 A2982 RMK AO2 SLP097 P0000 T00170017 FZRANO $
  • PAQT: Nuiqsut, Nuiqsut Airport, AK, United States
    PAQT 111449Z AUTO 07009KT 10SM UP OVC008 M01/M02 A3001 RMK AO2 UPB15SNE15 P0000 TSNO
    PAQT 111453Z AUTO 07009KT 10SM UP OVC008 M01/M02 A3001 RMK AO2 UPB15SNE15 SLP163 P0000 60000 T10061022 53002 TSNO
    PAQT 111553Z AUTO 06012KT 10SM UP OVC009 M01/M02 A3001 RMK AO2 CIG 006V011 SLP162 P0000 T10061022 TSNO
    PAQT 111653Z AUTO 05013KT 10SM UP OVC009 00/M02 A3000 RMK AO2 SLP161 P0000 T00001022 TSNO
  • PAZK: Eureka, Skelton Airport, AK, United States
    PAZK 111456Z AUTO 23008KT 10SM UP OVC039 A2967 RMK AO2 RAE09UPB09E18B54 SLPNO P0000 60000 57003 FZRANO $
    PAZK 111654Z AUTO 21006KT 10SM UP SCT004 OVC024 A2968 RMK AO2 RAE45UPB45 P0000 FZRANO $


0 stations reporting ice accretion in the past 1 hour

0 stations reporting ice accretion in the past 3 hours

0 stations reporting ice accretion in the past 6 hours

0 stations reporting hourly snow depth increase (SNINCR) of 3+"

0 stations reporting hourly snow depth increase (SNINCR) of 2"

0 stations reporting hourly snow depth increase (SNINCR) of 1"

0 stations reporting hourly (melted) precip total of 3" or greater

0 stations reporting hourly (melted) precip total of 2-2.99"

6 stations reporting hourly (melted) precip total of 1-1.99"

  • K6P9: Ranger, TX, United States [1.00in]
    K6P9 111555Z AUTO 00000KT 7SM -RA SCT006 BKN060 OVC100 19/15 A3001 RMK AO2 P0100 T01870145
  • KAPF: Naples, Naples Municipal Airport, FL, United States [1.29in]
    KAPF 111751Z 20008KT 1/2SM +RA FG VV018 24/24 A2991 RMK AO2 LTG DSNT S P0122
    KAPF 111753Z 21008KT 3/4SM +RA BR VV017 24/24 A2991 RMK AO2 LTG DSNT S SLP128 P0129 60226 T02390239 10261 20239 58001
  • KCGC: Crystal River, FL, United States [1.00in]
    KCGC 111455Z AUTO 00000KT 3/4SM +RA BKN014 BKN020 OVC026 25/23 A2988 RMK AO2 LTG DSNT SW P0100
  • KLBX: Angleton, TX, United States [1.59in]
    KLBX 111828Z AUTO 11012G29KT 060V140 1/4SM +RA FG BKN009 BKN030 OVC038 24/23 A2991 RMK AO2 PK WND 14029/1827 RAB09 P0116 T02440233
    KLBX 111838Z AUTO 18008G23KT 1/2SM +RA FG BKN011 BKN033 OVC110 24/23 A2988 RMK AO2 PK WND 14029/1827 RAB09 P0159 T02440228
  • KOPF: Miami, Opa Locka Airport, FL, United States [1.00in]
    KOPF 111653Z 24007KT 2SM RA BR BKN036 BKN050 OVC065 25/24 A2994 RMK AO2 LTG DSNT E SLP141 P0100 T02440244 $
  • KTTS: NASA Shuttle Facility, FL, United States [1.57in]
    KTTS 111755Z AUTO 19012KT 3/8SM R15/2600V3000FT +TSRA BR VV010 25/24 A2985 RMK AO2 RAE1657DZB1657E1658RAB1658E09DZB09E22RAB22 TSB37 CIG 010V014 SLP112 P0157 60160 T02530241 10316 20252 55002 $
11 stations reporting hourly (melted) precip total of 0.5-0.99"

  • K6P9: Ranger, TX, United States [0.96in]
    K6P9 111535Z AUTO 00000KT 1 1/2SM RA BKN006 BKN009 OVC014 19/10 A3002 RMK AO2 P0096 T01860100
  • KAPF: Naples, Naples Municipal Airport, FL, United States [0.83in]
    KAPF 111736Z 17006KT 1SM +RA BR FEW007 OVC017 24/24 A2992 RMK AO2 P0083 T02440244
  • KBKD: Breckenridge, TX, United States [0.64in]
    KBKD 111455Z AUTO 3SM RA BKN008 BKN015 OVC026 20/20 A2998 RMK AO2 LTG DSNT ALQS P0064 60064 T02000200
  • KGDJ: Granbury, Granbury Municipal Airport, TX, United States [0.75in]
    KGDJ 111655Z AUTO 29012G23KT 1 3/4SM TS BKN011 BKN023 OVC037 20/19 A2999 RMK AO2 LTG DSNT ALQDS P0075 T01970190
    KGDJ 111755Z AUTO 00000KT 7SM SCT037 BKN070 OVC085 20/19 A3000 RMK AO2 LTG DSNT ALQDS P0058 60135 T01960192 10245 20195
  • KISM: Orlando, Kissimmee Municipal Airport, FL, United States [0.50in]
    KISM 111838Z 20007KT 2SM +TSRA BR FEW020 BKN025 OVC037 26/25 A2989 RMK AO2 LTG DSNT NW-NE TSE25B26 P0050 $
  • KLBX: Angleton, TX, United States [0.74in]
    KLBX 111824Z AUTO 1/4SM +RA FG SCT011 BKN032 OVC080 25/24 A2991 RMK AO2 PK WND 13029/1820 RAB09 PRESRR P0074 T02500239
  • KMKN: Comanche, Comanche County-City Airport, TX, United States [0.50in]
    KMKN 111555Z AUTO 27012G23KT 1/4SM +TSRA OVC008 20/20 A3001 RMK AO2 LTG DSNT ALQS P0050 T01950195
  • KMWL: Mineral Wells, Mineral Wells Airport, TX, United States [0.76in]
    KMWL 111629Z AUTO 27009KT 3/4SM VCTS +RA BR FEW008 BKN021 OVC030 20/19 A2999 RMK AO2 LTG DSNT ALQDS TSB14E29 P0057 T02000189
    KMWL 111635Z AUTO 27006G18KT 1SM +RA BR FEW008 BKN021 OVC034 20/19 A2999 RMK AO2 LTG DSNT ALQDS TSB14E29 P0061 T02000189
    KMWL 111643Z AUTO 22008KT 1SM VCTS +RA BR FEW019 BKN026 OVC034 20/19 A2998 RMK AO2 LTG DSNT ALQDS TSB14E29 P0070 T02000189
    KMWL 111648Z AUTO 22009KT 1SM +TSRA BR FEW023 OVC030 20/19 A2998 RMK AO2 LTG DSNT ALQDS TSB14E29B44 P0075
    KMWL 111653Z AUTO 24008KT 1 1/2SM TSRA BR FEW020 OVC035 20/19 A2998 RMK AO2 LTG DSNT ALQDS TSB14E29B44 SLP140 P0076 T02000189
  • KOPF: Miami, Opa Locka Airport, FL, United States [0.88in]
    KOPF 111553Z 27009KT 1SM +RA BR BKN015 BKN048 OVC090 25/24 A2995 RMK AO2 SLP141 P0050 T02440239 $
    KOPF 111606Z 21012G21KT 1/2SM +RA FG VV017 25/24 A2995 RMK AO2 P0056 T02440244 $
    KOPF 111617Z 21009KT 2 1/2SM RA BR BKN023 OVC065 25/24 A2994 RMK AO2 P0067 T02440244 $
    KOPF 111633Z 23005KT 2 1/2SM +RA BR BKN030 OVC060 25/24 A2995 RMK AO2 P0088 T02440244 $
  • KPMP: Pompano Beach, FL, United States [0.58in]
    KPMP 111534Z 16005KT 2SM VCTS RA BR FEW011 BKN046 OVC070 24/24 A2996 RMK AO2 LTG DSNT NE P0051 T02440239
    KPMP 111549Z 11004KT 2SM RA BR SCT011 BKN037 OVC065 25/24 A2996 RMK AO2 P0057
    KPMP 111553Z 13003KT 2SM RA BR BKN009 BKN039 OVC070 25/24 A2996 RMK AO2 LTG DSNT E SLP145 P0058 T02500239
  • KXMR: Cape Kennedy, FL, United States [0.87in]
    KXMR 111755Z AUTO 22010KT 1 1/2SM VCTS +RA BR FEW002 25/24 A2983 RMK AO2 DZE1655DZB20E26RAB26 SLP104 P0087 60087 T02500238 10317 20248 57006 $
0 stations reporting 3 or 6 hourly (melted) precip total of 5" or greater

1 station reporting 3 or 6 hourly (melted) precip total of 4-4.99"

  • MMTL: Tulancingo, Mexico [4.55in]
    MMTL 111546Z 00000KT 4SM SCT015 BKN080 BKN250 27/27 A2985 RMK 60455 8/463 RAE33
0 stations reporting 3 or 6 hourly (melted) precip total of 3-3.99"

1 station reporting 3 or 6 hourly (melted) precip total of 2-2.99"

  • KAPF: Naples, Naples Municipal Airport, FL, United States [2.26in]
    KAPF 111753Z 21008KT 3/4SM +RA BR VV017 24/24 A2991 RMK AO2 LTG DSNT S SLP128 P0129 60226 T02390239 10261 20239 58001


0 stations reporting tornado, funnel cloud or waterspout

0 stations reporting mammatus cloud

0 stations reporting hail

0 stations reporting thundersnow

0 stations reporting thundersleet

0 stations reporting thunder with freezing rain

63 stations reporting thunder with rain

  • CYGE: Golden Airport, Canada
    CYGE 111610Z CCB 30005KT 290V050 15SM -TSRA SCT040CB BKN050TCU BKN085 OVC095 15/09 A2980 RMK CB3TCU2AC2AC1 CB ALQDS TCU ALQDS SLP095 DENSITY ALT 3300FT
  • EFKS: Kuusamo, Finland
    EFKS 111650Z AUTO 07006KT 9999 -TSRA BKN021 //////CB 10/08 Q0999
  • EFRO: Rovaniemi, Finland
    EFRO 111720Z AUTO 15009KT 120V190 9999 -TSRA BKN049 //////CB 12/07 Q0999
  • ESMX: Vaxjo, Sweden
    ESMX 111450Z 28006KT 250V320 5000 TSRA SCT024CB BKN040 12/10 Q1004
    ESMX 111520Z 22009KT 6000 TSRA SCT011CB BKN064 12/11 Q1004
  • FKKR: Garoua, Cameroon
    FKKR 111800Z 00000KT 9999 -TSRA BKN016 FEW020CB 26/23 Q1014 NOSIG
  • KCPW: Pagosa Springs, Wolf Creek Pass, CO, United States
    KCPW 111834Z AUTO 27014G19KT 5SM -TSRA SCT020 BKN025 OVC040 06/01 A3067 RMK AO2 LTG DSNT E THRU W P0002
  • KF45: North Palm Beach County AP, FL, United States
    KF45 111450Z AUTO 19011G15KT 10SM -TSRA SCT021 BKN034 OVC085 24/24 A2992 RMK AO2 LTG DSNT ALQDS P0016
  • KFLL: Fort Lauderdale/Hollywood, FL, United States
    KFLL 111709Z 20005KT 6SM R10L/6000VP6000FT -TSRA FEW027CB FEW065 OVC100 26/24 A2993 RMK AO2 TSB08 OCNL LTGICCG E-SE TS E-SE MOV E P0002 T02610244
    KFLL 111819Z 13005KT 9SM -TSRA BKN008 BKN020CB OVC110 27/25 A2993 RMK AO2 TSB18 OCNL LTGICCG SE-S TS SE-S MOV NE CB DSNT S-W-NW MOV NE P0002 T02670250
  • KFPR: Fort Pierce, St. Lucie County Intl Arpt, FL, United States
    KFPR 111456Z 21003KT 9SM -TSRA FEW050 FEW070 BKN110 27/24 A2989 RMK AO2 LTG DSNT NW TSB56 P0000 T02670244
  • KGRK: Fort Hood / Gray U. S. Army Airfield, United States
    KGRK 111801Z 26005KT 5SM -TSRA BKN080 OVC110 28/23 A2991 RMK AO2A SLP118
    KGRK 111826Z 26012KT 3SM -TSRA FEW010 FEW018 SCT030 BKN075 OVC110 26/24 A2995 RMK AO2A PRESRR SLP132
    KGRK 111827Z 26012KT 3SM -TSRA FEW006 FEW013 SCT018 SCT030 BKN070 OVC110 26/23 A2995 RMK AO2A SLP132
    KGRK 111839Z 24009KT 5SM TSRA FEW024 BKN031 23/21 A2998 RMK AO2A PRESRR SLP143
  • KGZN: Gregory M Simmons Memorial, Cisco, TX, United States
    KGZN 111500Z AUTO 00000KT 2 1/2SM -TSRA 19/19 A3000 RMK AO2 LTG DSNT ALQDS
  • KHST: Homestead AFB, FL, United States
    KHST 111748Z 22004KT 10SM -TSRA FEW016 SCT045CB SCT060 28/26 A2989 RMK DZB04E16RAB16 SLP125
    KHST 111755Z 20003KT 10SM -TSRA FEW016 SCT024 28/26 A2988 RMK AO2A DZB04E16RAB16 TSB48 SLP122 P0004 60009 T02790257 10290 20272 58008
  • KISM: Orlando, Kissimmee Municipal Airport, FL, United States
    KISM 111826Z 25006KT 6SM -TSRA BR SCT030 OVC036 26/25 A2990 RMK AO2 LTG DSNT NE AND NW TSE25B26 P0027 $
  • KMCF: Macdill AFB, Fl., FL, United States
    KMCF 111642Z 19016KT 10SM -TSRA SCT017 SCT025 BKN060 OVC070 28/25 A2984 RMK AO2A RAB40 TSB42 SLP107 FZRANO $
    KMCF 111647Z AUTO 20022G29KT 9SM -TSRA BR BKN017 BKN027 OVC065 27/25 A2984 RMK AO2 RAB40 TSB42 CIG 017V060 BKN017 V SCT CIG 014 RWY05 SLP107 FZRANO $
  • KMCO: Orlando, Orlando Intl Arpt, FL, United States
    KMCO 111738Z 21005G20KT 4SM -TSRA SCT031 BKN038CB OVC070 27/24 A2986 RMK AO2 LTG DSNT N AND W RAB21 TSE36B38 OCNL LTGIC OHD TS OHD MOV NE P0007 T02720244
    KMCO 111753Z 26006KT 10SM -TSRA SCT029 BKN038CB OVC065 27/24 A2987 RMK AO2 LTG DSNT N AND W RAB21 TSE36B38 SLP114 OCNL LTGIC OHD-W TS OHD-W MOV NE P0007 60007 T02720244 10311 20261 55003
    KMCO 111814Z 27010G18KT 4SM -TSRA BR FEW016 BKN025CB OVC040 26/24 A2988 RMK AO2 LTG DSNT E AND W VIS 1 1/2 NW-NE OCNL LTGIC OHD SW-NW-NE-E TS OHD SW-NW-NE-E MOV NE P0003 T02610239
    KMCO 111836Z 21012G24KT 4SM -TSRA BR SCT018 BKN030CB OVC070 26/24 A2988 RMK AO2 LTG DSNT ALQDS VIS 2 1/2 N-NE CONS LTGICCG OHD ALQDS TS OHD ALQDS MOV NE P0015 T02560244
  • KMKN: Comanche, Comanche County-City Airport, TX, United States
    KMKN 111615Z AUTO 28005KT 2 1/2SM -TSRA SCT011 BKN023 OVC047 20/20 A3002 RMK AO2 LTG DSNT ALQS P0010 T01950195
    KMKN 111635Z AUTO 32007KT 5SM -TSRA BKN009 BKN048 OVC100 19/19 A3002 RMK AO2 LTG DSNT ALQS P0012 T01930193
  • KMLB: Melbourne, Melbourne Intl Arpt, FL, United States
    KMLB 111645Z 23017G27KT 3/4SM R09R/2400VP6000FT TSRA BR FEW006 BKN023 OVC039 24/23 A2988 RMK AO2 PK WND 23027/1643 RAB14 TSB39 P0034 T02440233
    KMLB 111651Z 23010G27KT 2SM R09R/4000VP6000FT TSRA BR FEW006 BKN029 OVC060 24/23 A2988 RMK AO2 PK WND 23027/1643 RAB14 TSB39 P0044
    KMLB 111652Z 23009G27KT 2 1/2SM R09R/4000VP6000FT TSRA BR FEW006 BKN029 OVC060 24/23 A2988 RMK AO2 PK WND 23027/1643 RAB14 TSB39 SLP116 P0046 T02440233
    KMLB 111656Z 22009G17KT 3SM R09R/5000VP6000FT TSRA BR FEW009 BKN033 OVC080 24/23 A2988 RMK AO2 P0006 T02440233
  • KMWL: Mineral Wells, Mineral Wells Airport, TX, United States
    KMWL 111653Z AUTO 24008KT 1 1/2SM TSRA BR FEW020 OVC035 20/19 A2998 RMK AO2 LTG DSNT ALQDS TSB14E29B44 SLP140 P0076 T02000189
    KMWL 111708Z AUTO 23003KT 2 1/2SM TSRA BR SCT042 BKN075 OVC090 20/19 A2998 RMK AO2 LTG DSNT ALQDS TSE1659B02 P0004 T02000189
  • KPBI: West Palm Beach, FL, United States
    KPBI 111453Z 22013G24KT 6SM -TSRA BR SCT009 BKN032CB BKN044 26/24 A2994 RMK AO2 PK WND 13028/1441 WSHFT 1438 RAB46 SLP138 OCNL LTGICCG SW-N TS SW-N MOV NE CB DSNT ALQDS P0000 60000 T02560244 53015
    KPBI 111500Z 20011KT 6SM -TSRA BR SCT009 BKN032CB BKN085 25/24 A2994 RMK AO2 WSHFT 1440 OCNL LTGICCG SW-N TS SW-N MOV NE CB DSNT ALQDS P0002 T02500239
    KPBI 111553Z 18009KT 10SM -TSRA SCT035CB BKN055 BKN110 25/24 A2995 RMK AO2 WSHFT 1440 SLP140 OCNL LTGICCG E-SE TS E-SE MOV E CB DSNT N E-SW NW P0006 T02500244
  • KSFB: Sanford, FL, United States
    KSFB 111727Z 28005G18KT 2 1/2SM TSRA BR SCT019 BKN055 OVC100 26/24 A2985 RMK AO2 LTG DSNT SW AND NW RAB04 P0010 T02610244
  • KSPG: St. Petersburg, Whitted Airport, FL, United States
    KSPG 111645Z 19017G27KT 4SM -TSRA BR BKN013 BKN030 OVC060 27/26 A2984 RMK AO2 PK WND 23032/1620 LTG DSNT N RAB21 TSB36 P0010 T02720256
  • KSPS: Wichita Falls, Sheppard AFB, TX, United States
    KSPS 111831Z 11011KT 10SM TSRA BKN017 OVC026 24/22 A2995 RMK AO2 LTG DSNT SE AND W RAE01B31 TSB31 P0000 T02440217
  • KTMB: Miami, Kendall-Tamiami Executive Airport, FL, United States
    KTMB 111736Z 34004KT 4SM TSRA BR SCT055 BKN090 BKN110 27/26 A2992 RMK AO2 LTG DSNT SE AND SW TSB30 P0005 T02670261 $
    KTMB 111749Z 01009KT 4SM TSRA BR SCT006 BKN050 OVC090 26/26 A2991 RMK AO2 LTG DSNT E-SW TSB30 P0010 $
    KTMB 111753Z 01008KT 4SM TSRA BR FEW004 BKN010 OVC050 26/26 A2991 RMK AO2 LTG DSNT E-SW TSB30 SLP128 P0013 60059 T02610261 10283 20256 56007 $
  • KTPA: Tampa, Tampa Intl Arpt, FL, United States
    KTPA 111715Z 19016G25KT 1 1/2SM R19R/2000VP6000FT TSRA BKN020CB BKN026 OVC035 26/25 A2988 RMK AO2 PK WND 21028/1657 LTG DSNT N AND SE AND NW TSB06 OCNL LTGIC NW TS NW MOV E P0017 T02560250
    KTPA 111726Z 19013G26KT 3SM R19R/4000VP6000FT -TSRA BKN020CB BKN026 OVC035 26/25 A2989 RMK AO2 PK WND 21028/1657 LTG DSNT N AND SE AND NW TSB06 OCNL LTGIC NW TS NW MOV E P0022 T02610250
  • KTTS: NASA Shuttle Facility, FL, United States
    KTTS 111812Z AUTO 18014KT 4SM -TSRA BR BKN012 OVC029 25/24 A2985 RMK AO2 VIS 2 RWY15/33 VIS 5/8 RWY33 TSE1756TSB02 BKN V OVC SLP112 $
  • KVRB: Vero Beach, FL, United States
    KVRB 111508Z 00000KT 3SM -TSRA BR FEW020 SCT042 BKN070 25/24 A2989 RMK AO2 P0011 T02500239
    KVRB 111512Z 20004KT 6SM -TSRA BR FEW042 SCT070 BKN095 26/24 A2989 RMK AO2 LTG DSNT N P0012 T02560244
  • KX26: Valkaria AFS Sebastian, FL, United States
    KX26 111515Z AUTO 16007KT 5SM TSRA BR SCT009 BKN048 OVC075 25/23 A2989 RMK AO2 LTG DSNT ALQDS P0004 T02490231
  • KXMR: Cape Kennedy, FL, United States
    KXMR 111811Z AUTO 21006KT 7SM -TSRA SCT003 BKN049 OVC100 25/24 A2983 RMK AO2 TSB11 SLP104 $
  • LIMA: Aeritalia, Italy
    LIMA 111450Z 14005KT 100V180 8000 TSRA BKN020CB 25/15 Q1007
    LIMA 111609Z 07011G23KT 030V110 9999 TSRA BKN020CB 17/16 Q1008
    LIMA 111650Z 10005KT 9999 TSRA BKN020CB 18/17 Q1008
  • LIMC: Milano / Malpensa, Italy
    LIMC 111720Z 35013KT 8000 TSRA SCT025CB BKN035 17/14 Q1008 WS R35L NOSIG
  • LIMF: Torino / Caselle, Italy
    LIMF 111450Z 05007KT 7000 -TSRA SCT035CB BKN060 23/17 Q1008
    LIMF 111520Z VRB04KT 7000 TSRA SCT035CB BKN060 20/17 Q1008
    LIMF 111550Z 05006KT 020V110 9999 -TSRA SCT040CB BKN055 19/17 Q1008
  • LIML: Milano / Linate, Italy
    LIML 111820Z 02009KT 320V080 9000 -TSRA FEW005 SCT020CB BKN060 20/15 Q1008 NOSIG
  • LIMN: Novara / Cameri, Italy
    LIMN 111555Z 11009KT 9999 -TSRA SCT030 SCT040CB 23/18 Q1007
    LIMN 111555Z 11009KT 9999 -TSRA SCT030 SCT040CB 23/18 Q1007 RMK BKN VIS MIN 9999 BLU
    LIMN 111655Z 11009KT 9999 -TSRA SCT030 SCT040CB BKN060 21/18 Q1007
    LIMN 111655Z 11009KT 9999 -TSRA SCT030 SCT040CB BKN060 21/18 Q1007 RMK OVC VIS MIN 9999 BLU
    LIMN 111729Z 31010KT 280V010 9999 TSRA SCT015 SCT030CB BKN060 21/18 Q1007 RMK OVC VIS MIN 7000N WHT
  • LQTZ: Tuzla, Serbia and Montenegro
    LQTZ 111530Z VRB03KT 9999 -TSRA FEW035CB BKN045 23/18 Q1012
    LQTZ 111600Z VRB03KT 9999 -TSRA FEW035CB SCT045 23/18 Q1011
  • LRBC: Bacau, Romania
    LRBC 111730Z 02009KT 9999 -TSRA SCT044CB SCT060 20/17 Q1008 RESHRA
  • LRIA: Iasi, Romania
    LRIA 111730Z 25010KT 220V300 9999 -TSRA FEW053CB 21/18 Q1006
  • LRTM: Tirgu Mures, Romania
    LRTM 111500Z 24010KT //// -TSRA FEW028 BKN032CB 21/18 Q1010
  • LSZA: Lugano, Switzerland
    LSZA 111450Z 09004KT 020V190 9999 TSRA FEW010 FEW060CB BKN080 18/14 Q1010
    LSZA 111520Z VRB05KT 9999 TSRA FEW015 FEW060CB BKN080 17/14 Q1009
    LSZA 111820Z AUTO VRB02KT 9999 TSRA SCT050CB BKN060 17/14 Q1010
  • LYKV: Kraijevo, Serbia and Montenegro
    LYKV 111600Z 31010KT 4000 TSRA SCT027CB BKN033 22/18 Q1011 NOSIG
  • MNBL: Bluefields, Nicaragua
    MNBL 111700Z 18004KT 5000 -TSRA SCT017CB SCT020 27/27 Q1011 CBRA/4/C
  • MNMG: Managua A. C. Sandino, Nicaragua
    MNMG 111800Z 19004KT 6000 TSRA FEW020CB SCT023 27/25 Q1010 A2983 2AS070 CB 4/C
  • MPMG: Marcos A. Gelabert, Panama
    MPMG 111500Z VRB01KT 9000 -TSRA FEW006 SCT015CB BKN060 26/25 Q1012
    MPMG 111514Z VRB03KT 9000 -TSRA SCT005 SCT012CB 27/26 Q1012
  • MPTO: Tocumen, Panama
    MPTO 111500Z 05003KT 8000 -TSRA SCT005 SCT016CB BKN080 25/25 Q1012
  • MYGF: Freeport, Grand Bahama, Bahamas, The
    MYGF 111500Z 22006KT 190V250 9999 -TSRA SCT015CB SCT050 OVC100 26/24 A2995
    MYGF 111600Z 21009KT 6400 -TSRA FEW010 SCT015CB OVC100 25/24 A2998
  • OIGG: Rasht, Iran
    OIGG 111500Z 00000KT 8000 TSRA SCT020CB BKN080 25/21 Q1008
    OIGG 111500Z 00000KT 8000 TSRA SCT020CB BKN080 25/21 Q1008 NOSIG
  • OINN: Noshahr, Iran
    OINN 111500Z 28006KT 7000 -TSRA SCT026CB SCT030 OVC090 25/22 Q1009
    OINN 111800Z 10019KT 6000 -TSRA SCT023CB SCT028 OVC090 24/21 Q1006
  • OINR: Ramsar, Iran
    OINR 111500Z 08004KT 8000 -TSRA SCT020CB SCT025 OVC090 25/22 Q1009
  • OITL: Ardabil, Iran
    OITL 111454Z 08008KT 9999 TSRA FEW030 BKN050CB BKN100 17/14 Q1015
    OITL 111500Z 08008KT 9999 TSRA FEW030 BKN050CB BKN100 17/14 Q1015
    OITL 111530Z 07008KT 9000 TSRA FEW030 BKN050CB BKN100 16/13 Q1015
    OITL 111553Z 32008KT 9000 TSRA FEW030 BKN050CB BKN080 16/13 Q1016
    OITL 111600Z 32008KT 9000 TSRA FEW030 BKN050CB BKN080 16/13 Q1016
    OITL 111630Z 34006KT 8000 TSRA FEW030 BKN050CB BKN080 16/14 Q1017
    OITL 111650Z 05006KT 8000 TSRA SCT025 SCT045CB BKN080 16/13 Q1015
    OITL 111700Z 05006KT 8000 TSRA SCT025 SCT045CB BKN080 16/13 Q1015
  • PTRO: Babelthuap Island, Babelthuap/Koror Airport, Palau
    PTRO 111550Z 04003KT 10SM -TSRA SCT015CB BKN110 OVC290 26/25 A2987
    PTRO 111550Z 04003KT 10SM -TSRA SCT015CB BKN110 OVC290 26/25 A2987 RMK OCNL LTGIC S TS S CB ALQDS AND OHD
  • ROAH: Naha Airport, Japan
    ROAH 111626Z AUTO 23009KT 5000 -TSRA BR FEW022 SCT042 BKN048 //////CB 25/25 Q1006 RMK A2973 TS 10KM S-SW MOV E
    ROAH 111630Z AUTO 23008KT 5000 -TSRA BR FEW022 SCT039 BKN042 //////CB 25/25 Q1006
    ROAH 111630Z AUTO 23008KT 5000 -TSRA BR FEW022 SCT039 BKN042 //////CB 25/25 Q1006 RMK A2972 TS 10KM S-SW MOV E
    ROAH 111635Z AUTO 22010KT 3200 -TSRA BR FEW006 SCT036 BKN042 //////CB 25/25 Q1006 RMK A2973 TS 5KM S MOV E
    ROAH 111642Z AUTO 22010KT 5000 -TSRA BR FEW006 SCT026 BKN036 //////CB 25/25 Q1006 RMK A2972 TS 10KM E-S MOV E
    ROAH 111644Z AUTO 22009KT 3300 -TSRA BR FEW006 SCT026 BKN034 //////CB 25/25 Q1006 RMK A2972 TS 10KM E-S MOV E
    ROAH 111706Z AUTO 27004KT 2800 TSRA BR FEW016 SCT030 BKN042 //////CB 25/25 Q1006 RMK A2971 RI003 TS 5KM NW MOV E
    ROAH 111711Z AUTO 26005KT 4000 -TSRA BR FEW012 SCT026 BKN033 //////CB 25/25 Q1006 RMK A2972 TS OHD STNR AND 10KM NW MOV E
    ROAH 111715Z AUTO 26005KT 2900 -TSRA BR SCT010 BKN029 BKN048 //////CB 25/25 Q1006 RMK A2972 TS OHD STNR AND 10KM NW MOV E
    ROAH 111730Z AUTO 29007KT 240V330 1500 R18L/1900U R18R/1200VP2000U TSRA BR FEW002 BKN008 BKN010 //////CB 25/25 Q1006
    ROAH 111730Z AUTO 29007KT 240V330 1500 R18L/1900U R18R/1200VP2000U TSRA BR FEW002 BKN008 BKN010 //////CB 25/25 Q1006 RMK A2971 RI006 TS 10KM W MOV E
    ROAH 111804Z AUTO 24015G26KT 0500 R18L/1000VP2000U R18R/0700VP2000U TSRA FG FEW003 BKN007 BKN011 //////CB 25/25 Q1006 RMK A2971 RI007 TS OHD AND 20KM E MOV E
    ROAH 111805Z AUTO 24016G27KT 0600 R18L/1000VP2000U R18R/0700VP2000U TSRA FG FEW003 SCT005 BKN008 //////CB 25/25 Q1006 RMK A2971 RI005 TS OHD AND 20KM E MOV E
    ROAH 111819Z AUTO 27014KT 3000 -TSRA BR FEW005 SCT017 BKN035 //////CB 25/25 Q1006 RMK A2972 TS 15KM E MOV E
    ROAH 111824Z AUTO 26012KT 5000 -TSRA BR FEW008 SCT019 BKN029 //////CB 25/25 Q1006 RMK A2972 TS 20KM E STNR CB 10KM W-NW MOV E
    ROAH 111836Z AUTO 30014KT 9000 -TSRA FEW007 SCT019 BKN037 //////CB 25/25 Q1006 RMK A2972 TS 15KM SE MOV E
    ROAH 111840Z AUTO 30013KT 0900 R18L/P2000N R18R/P2000N -TSRA FG FEW007 SCT019 BKN037 //////CB 25/25 Q1006 RMK A2972 TS 15KM SE MOV E
  • RODN: Kadena Ab, Japan
    RODN 111812Z 23009KT 10SM -TSRA FEW022 25/24 A2969 RMK PRESRR SLPNO PWINO FZRANO TSNO $
  • ROTM: Futenma Marine Corps Air Facility, Japan
    ROTM 111745Z 23014G27KT 1 3/4SM TSRA BR FEW016 BKN035 OVC060 24/24 A2972 RMK AO2 PK WND 20027/1738 RAB44 TSB44 T02440244 PNO $
    ROTM 111749Z 25010G23KT 3/4SM TSRA BR BKN026 OVC060 24/24 A2972 RMK AO2 PK WND 20027/1738 RAB44 TSB44 T02440244 PNO $
    ROTM 111758Z AUTO 17008G19KT 1SM TSRA BR BKN021 BKN039 OVC060 24/24 RMK AO2 T02440244 PNO $
    ROTM 111815Z AUTO 27008KT 2SM TSRA BR FEW005 BKN019 OVC036 24/ RMK AO2 T0244 PNO $
    ROTM 111823Z AUTO 26006KT 5SM TSRA BR SCT005 BKN023 OVC034 24/ RMK AO2 T0244 PNO $
    ROTM 111830Z AUTO 26009KT 5SM TSRA BR BKN004 OVC023 24/ RMK AO2 T0244 PNO $
  • SBOI: Oiapoque, Brazil
    SBOI 111832Z AUTO 08009KT 020V130 9999 -TSRA BKN010 BKN042 //////CB 26/25 Q1013
  • SMJP: Johan A. Pengel, Suriname
    SMJP 111800Z 10006KT 5000 TSRA SCT010 FEW015CB 27/25 Q1012
  • URMN: Nalchik, Russia
    URMN 111500Z 21003MPS 9999 -TSRA BKN027CB 21/18 Q1014 R24/010070 NOSIG RMK QFE724
  • URWW: Volgograd, Russia
    URWW 111449Z 07002MPS 040V140 9999 -TSRA BKN050CB 28/15 Q1014 R05/290055
  • UUBW: Moscow / Novoye Selo Ramenskoye, Russia
    UUBW 111509Z 24006MPS 9999 -TSRA SCT030CB 21/17 Q1008 R30/010060 NOSIG RMK QFE745
    UUBW 111530Z 27005MPS 240V310 8000 -TSRA BKN027CB 19/19 Q1008 R30/290050 NOSIG RMK QFE746
  • UUDD: Moscow / Domodedovo, Russia
    UUDD 111500Z 28006MPS 9999 -TSRA SCT022CB 20/17 Q1008 R14R/CLRD60
    UUDD 111511Z 28007MPS 4300 1800E TSRA BKN009CB 19/18 Q1008 R14R/290045
  • UUMO: Ostafyevo, Russia
    UUMO 111500Z 18003MPS 150V220 7000 -TSRA BKN///CB 19/18 Q1007 R25/290050 NOSIG RMK QFE740/0987
  • VOML: Mangalore / Bajpe, India
    VOML 111630Z 34002KT 1600 -TSRA BR FEW001 SCT012 FEW025CB BKN080 25/24 Q1011 NOSIG
    VOML 111700Z 24003KT 2500 -TSRA BR FEW003 SCT012 FEW025CB BKN080 25/24 Q1011 NOSIG
    VOML 111730Z 13003KT 0800 R24/1000 -TSRA FG FEW001 SCT012 FEW025CB BKN080 25/24 Q1011 NOSIG
    VOML 111800Z 12003KT 0800 R24/1100 -TSRA FG FEW001 SCT012 FEW025CB BKN080 24/24 Q1011
  • VOMM: Madras / Minambakkam, India
    VOMM 111600Z 35008KT 2000 -TSRA SCT018 FEW025CB BKN080 28/25 Q1006
    VOMM 111630Z 06006KT 4000 -TSRA BR SCT018 FEW025CB BKN080 28/26 Q1005 NOSIG
    VOMM 111630Z 06006KT 4000 -TSRA BR SCT018 FEW025CB BKN080 28/26 Q1006 NOSIG
    VOMM 111630Z 06006KT 4000 -TSRA BR SCT018 FEW025CB BKN080 COR 28/26 Q1006 NOSIG
  • ZYCC: Changchun, China
    ZYCC 111500Z 26005MPS 230V340 9999 -TSRA SCT030CB BKN030 20/15 Q1000
    ZYCC 111600Z 27003MPS 9999 -TSRA SCT030CB BKN030 19/17 Q1000
    ZYCC 111700Z VRB01MPS 8000 -TSRA FEW030CB BKN030 18/17 Q0999
  • ZYTL: Dalian, China
    ZYTL 111630Z VRB03MPS 9999 -TSRA BKN026 SCT033CB 25/13 Q1002
    ZYTL 111700Z 05003MPS 330V130 9999 -TSRA BKN026 SCT033CB 24/15 Q1003
    ZYTL 111730Z 20008MPS 170V230 9999 -TSRA BKN026 SCT033CB 22/16 Q1002 NOSIG
    ZYTL 111800Z 21009G14MPS 9999 -TSRA BKN026 SCT033CB 23/16 Q1001
    ZYTL 111830Z 20008MPS 170V240 9999 -TSRA BKN026 SCT033CB 23/16 Q1000 NOSIG


0 stations reporting blizzard conditions

0 stations reporting near-blizzard conditions


3 stations reporting visibility of zero

  • LIVP: Paganella, Italy
    LIVP 111755Z 24013KT 0000 FG VV/// 06/06 Q1014 RERA
    LIVP 111755Z 24013KT 0000 FG VV/// 06/06 Q1014 RERA RMK MON INVIS VAL INVIS VIS MIN 0000
  • LIVR: Passo Rolle, Italy
    LIVR 111755Z 15008KT 0000 -RA FG VV/// 08/07 Q1014
    LIVR 111755Z 15008KT 0000 -RA FG VV/// 08/07 Q1014 RMK MON INVIS VIS MIN 0000
  • RJCH: Hakodate Airport, Japan
    RJCH 111800Z AUTO VRB02KT 0000 R12/0225N FG OVC000 15/15 Q1007
13 stations reporting visibility 1/8 mile or less, but not zero

  • CWSA: Sable Island, N. S., Canada [1/8mile]
    CWSA 111644Z AUTO 20008KT 1/8SM -RA FG VV002 14/12 A2997 RMK SLP150
    CWSA 111700Z AUTO 21008KT 1/8SM -RA FG VV002 14/13 A2997 RMK SLP152
  • KAVX: Avalon, Catalina Airport, CA, United States [<1/4mile]
    KAVX 111451Z AUTO 12003KT M1/4SM FG VV001 13/13 A2993 RMK AO2 SLP129 T01280128 51009 $
    KAVX 111551Z AUTO 00000KT M1/4SM FG VV001 13/13 A2994 RMK AO2 SLP132 T01330133 $
    KAVX 111651Z AUTO 22003KT M1/4SM FG VV001 13/13 A2994 RMK AO2 SLP133 T01330133 $
    KAVX 111826Z AUTO 25006KT M1/4SM FG VV001 13/13 A2995 RMK AO2 T01330133 $
  • KGMJ: Grove, Grove Municipal Airport, OK, United States [<1/4mile]
    KGMJ 111815Z AUTO 23006KT M1/4SM -RA HZ VV000 28/16 A2999 RMK AO2 VIS M1/4V5 TSNO
  • KMWN: Mount Washington, NH, United States [1/16mile]
    KMWN 111447Z 03003KT 1/8SM FG BKN000 05/05 RMK FG BKN000 FG INTMT T00540049
    KMWN 111558Z 11002KT 1/16SM FG VV001 06/06 RMK FG INTMT
    KMWN 111653Z 10004KT 1/8SM FG BKN000 OVC008 09/07 RMK FG BKN000
    KMWN 111653Z COR 10004KT 1/8SM FG BKN000 OVC008 09/06 RMK FG BKN000
  • KNSI: San Nicholas Island, CA, United States [<1/4mile]
    KNSI 111453Z 28004KT M1/4SM FG VV002 12/12 A2991 RMK AO2 SLP125 T01220117 51008
    KNSI 111453Z COR 28004KT 1/8SM FG VV002 12/12 A2991 RMK AO2 SLP125 T01220117 51008
  • LIVP: Paganella, Italy [100meters]
    LIVP 111455Z 22010KT 0100 FG VV/// 09/07 Q1015
    LIVP 111455Z 22010KT 0100 FG VV/// 09/07 Q1015 RMK MON INVIS VAL INVIS VIS MIN 0100
    LIVP 111555Z 23009KT 0100 FG VV/// 09/07 Q1015
    LIVP 111555Z 23009KT 0100 FG VV/// 09/07 Q1015 RMK MON INVIS VAL INVIS VIS MIN 0100
    LIVP 111755Z 24013KT 0000 FG VV/// 06/06 Q1014 RERA
    LIVP 111755Z 24013KT 0000 FG VV/// 06/06 Q1014 RERA RMK MON INVIS VAL INVIS VIS MIN 0000
  • PASM: St. Mary's, St. Mary's Airport, AK, United States [<1/4mile]
    PASM 111515Z AUTO 23006KT M1/4SM FG OVC002 06/06 A2975 RMK AO2
  • PATC: Tin City Airways Facilities Sector, AK, United States [<1/4mile]
    PATC 111455Z AUTO 02030KT M1/4SM -SN FZFG VV002 M01/M01 A2963
    PATC 111455Z AUTO 02030KT M1/4SM -SN FZFG VV002 M01/M01 A2963 RMK AO2 PK WND 02032/1445 SNB1407 SLP037 P0000 60000 T10101010 55001
    PATC 111555Z AUTO 03027KT M1/4SM -SN FZFG VV002 M01/M01 A2963
    PATC 111555Z AUTO 03027KT M1/4SM -SN FZFG VV002 M01/M01 A2963 RMK AO2 PK WND 02032/1459 SNB1407 SLP038 P0000 T10101009
    PATC 111655Z AUTO 03027KT M1/4SM -SN FZFG VV002 M01/M01 A2963
    PATC 111655Z AUTO 03027KT M1/4SM -SN FZFG VV002 M01/M01 A2963 RMK AO2 PK WND 02031/1601 SNB1554 SLP039 P0000 T10081007
    PATC 111755Z AUTO 03026KT M1/4SM -SN FZFG VV002 M01/M01 A2965
    PATC 111755Z AUTO 03026KT M1/4SM -SN FZFG VV002 M01/M01 A2965 RMK AO2 PK WND 03029/1655 SNB1554 SLP044 P0000 60000 T10081007 11007 21012 51009
  • PAUT: Akutan, AK, United States [<1/4mile]
    PAUT 111455Z AUTO 30015KT M1/4SM FG OVC003 05/05 A2983 RMK AO2
    PAUT 111515Z AUTO 31014KT M1/4SM FG OVC003 05/05 A2984 RMK AO2
    PAUT 111535Z AUTO 32016G20KT M1/4SM FG OVC003 05/05 A2985 RMK AO2
    PAUT 111555Z AUTO 32019G23KT M1/4SM FG OVC003 05/05 A2985 RMK AO2
    PAUT 111615Z AUTO 32019G24KT M1/4SM FG OVC003 04/04 A2986 RMK AO2
    PAUT 111635Z AUTO 31017G22KT M1/4SM FG OVC003 04/04 A2986 RMK AO2
  • RJCK: Kushiro Airport, Japan [100meters]
    RJCK 111600Z AUTO 19004KT 0100 R35/0300N FG BKN005 12/12 Q1007
    RJCK 111800Z AUTO 35003KT 0100 R35/0300V0500D FG OVC000 14/14 Q1007
  • SAWG: Rio Gallegos Aerodrome, Argentina [200meters]
    SAWG 111544Z VRB02KT 0200 R25/1100U DZ FG OVC002 03/02 Q1005
    SAWG 111600Z 00000KT 0200 R25/1300N DZ FG OVC002 03/02 Q1005
  • YBLN: Busselton Regional AP, Australia [200meters]
    YBLN 111700Z AUTO 13004KT 0200 FG BKN003 10/09 Q1019 RF00.0/004.8
    YBLN 111731Z AUTO 12003KT 0200 FG SCT003 09/09 Q1019 RF00.0/004.8
    YBLN 111733Z AUTO 13004KT 0200 FG BKN003 09/09 Q1019 RF00.0/004.8
    YBLN 111800Z AUTO 14003KT 0200 FG OVC002 09/09 Q1019 RF00.0/004.8
    YBLN 111830Z AUTO 13005KT 0200 FG OVC001 10/10 Q1019 RF00.0/004.8
  • YGLA: Gladstone, Australia [50meters]
    YGLA 111630Z AUTO 20003KT 0050 DU ////// 14/12 Q1017 RF00.0/000.0 CLD
    YGLA 111643Z AUTO 21004KT 0050 FG ////// 13/12 Q1017 RF00.0/000.0 CLD
    YGLA 111644Z AUTO 21004KT 0050 DU ////// 13/12 Q1017 RF00.0/000.0 CLD
    YGLA 111645Z AUTO 21004KT 0050 FG ////// 13/12 Q1017 RF00.0/000.0 CLD
    YGLA 111700Z AUTO 21005KT 0050 FG ////// 13/12 Q1017 RF00.0/000.0 CLD
0 stations reporting visibility 75 miles or greater

3 stations reporting visibility 50-74 miles

  • CYQL: Lethbridge, Alta., Canada [60miles]
    CYQL 111500Z 24014KT 60SM FEW210 21/08 A2982 RMK CI1 SLP090 DENSITY ALT 4500FT
    CYQL 111600Z 25018G23KT 60SM FEW064 FEW220 22/06 A2981 RMK CF1CI1 CF TR CI TR SLP084 DENSITY ALT 4700FT
    CYQL 111700Z 24018G23KT 60SM FEW070 FEW210 23/05 A2979 RMK AC1CI1 AC TR CI TR SLP077 DENSITY ALT 4900FT
    CYQL 111800Z 25011G17KT 60SM FEW070 24/06 A2976 RMK AC1 AC TR SLP068 DENSITY ALT 5000FT
  • CYXJ: Fort St John, B. C., Canada [60miles]
    CYXJ 111600Z 24006KT 60SM BKN110 14/03 A2963 RMK AC7 SLP042 DENSITY ALT 3000FT
    CYXJ 111700Z 28008KT 240V300 60SM BKN090 14/03 A2962 RMK AC7 VIRGA SLP041 DENSITY ALT 3100FT
    CYXJ 111800Z VRB02KT 60SM FEW048 OVC100 14/03 A2962 RMK CU1AC7 VIRGA SLP040 DENSITY ALT 3100FT
  • KEDW: Edwards AFB, CA, United States [50miles]
    KEDW 111455Z 00000KT 50SM CLR 22/05 A2992 RMK AO2A SLP107 T02150050 52012
    KEDW 111555Z 03004KT 50SM CLR 25/06 A2993 RMK AO2A SLP110 T02490061
    KEDW 111655Z 00000KT 50SM CLR 28/07 A2992 RMK AO2A SLP107 T02840065
    KEDW 111755Z 36004KT 50SM CLR 31/05 A2991 RMK AO2A SLP102 T03100047 10310 20155 58004


0 stations reporting aurora

0 stations reporting solar/lunar eclipse


0 stations reporting inside a hurricane eye

1 station reporting aircraft mishap

  • KIWA: Mesa, Williams Gateway Airport, AZ, United States
    KIWA 111710Z 00000KT 10SM CLR 35/02 A2987 RMK ACFT MSHP
15 stations reporting bird hazard on the runway

  • SPCL: Pucallpa, Peru
    SPCL 111500Z 36002KT 9999 SCT020 BKN080 28/24 Q1017 RMK BIRD HAZARD RWY 02/20 PP000
    SPCL 111600Z 01005KT 9999 SCT020 BKN070 29/23 Q1016 RMK BIRD HAZARD RWY 02/20 PP000
    SPCL 111700Z 03004KT 9999 SCT020 BKN080 30/23 Q1015 RMK BIRD HAZARD RWY 02/20 PP000
    SPCL 111800Z 02003KT 9999 SCT025 32/23 Q1014 RMK BIRD HAZARD RWY 02/20 PP000
  • SPHI: Chiclayo, Peru
    SPHI 111500Z 18004KT 130V230 CAVOK 22/15 Q1015 RMK BIRD HAZARD RWY 19/01 PP000
    SPHI 111600Z 20005KT 130V260 CAVOK 23/15 Q1014 RMK BIRD HAZARD RWY 19/01 PP000
    SPHI 111700Z 22009KT 170V250 CAVOK 24/16 Q1014 RMK BIRD HAZARD RWY 19/01 PP000
    SPHI 111800Z 21011KT 180V240 CAVOK 24/15 Q1013 RMK BIRD HAZARD RWY 19/01 PP000
  • SPHO: Ayacucho, Peru
    SPHO 111500Z VRB01KT CAVOK 16/M01 Q1033 RMK BIRD HAZARD RWY 02/20 PP000
    SPHO 111600Z VRB02KT CAVOK 19/M01 Q1032 RMK BIRD HAZARD RWY 02/20 PP000
    SPHO 111700Z VRB03KT CAVOK 20/M03 Q1030 RMK BIRD HAZARD RWY 02/20 PP000
    SPHO 111800Z VRB04KT 9999 FEW050 22/M06 Q1029 RMK BIRD HAZARD RWY 02/20 PP000
  • SPHY: Andahuayla, Peru
    SPHY 111500Z 02006KT CAVOK 13/M01 Q1037 RMK BIRD HAZARD RWY03/21 PP000
    SPHY 111600Z 01006KT CAVOK 15/00 Q1037 RMK BIRD HAZARD RWY03/21 PP000
    SPHY 111700Z 01008KT CAVOK 16/02 Q1036 RMK BIRD HAZARD RWY03/21 PP000
    SPHY 111800Z 05009KT CAVOK 17/03 Q1035 RMK BIRD HAZARD RWY03/21 PP000
  • SPJC: Lima/J Chavez, Peru
    SPJC 111500Z 21005KT 190V250 5000 BR OVC010 17/14 Q1015 NOSIG RMK BIRD HAZARD RWY 16 PP000
    SPJC 111600Z 23005KT 200V260 7000 BKN011 18/14 Q1014 NOSIG RMK BIRD HAZARD RWY 16 PP000
    SPJC 111700Z 25006KT 220V290 7000 OVC013 18/14 Q1014 NOSIG RMK BIRD HAZARD RWY 16 PP000
    SPJC 111800Z 27006KT 230V290 5000 HZ OVC013 18/14 Q1014 NOSIG RMK BIRD HAZARD RWY 16 PP000
  • SPJE: Shumba, Peru
    SPJE 111500Z 03008KT 9999 SCT040 BKN070 25/22 Q1019 RMK BIRD HAZARD RWY 16/34 PP000
    SPJE 111600Z VRB02KT 9999 SCT040 BKN080 26/22 Q1018 RMK BIRD HAZARD RWY 16/34 PP000
    SPJE 111700Z 35007KT 9999 FEW040 BKN090 28/22 Q1017 RMK BIRD HAZARD RWY 16/34 PP000
    SPJE 111800Z 36006KT 9999 SCT040 BKN090 28/22 Q1016 RMK BIRD HAZARD RWY 16/34 PP000
  • SPJL: Juliaca, Peru
    SPJL 111500Z VRB02KT CAVOK 12/M07 Q1040 RMK BIRD HAZARD RWY 12/30 PP000
    SPJL 111600Z VRB04KT CAVOK 13/M02 Q1039 RMK BIRD HAZARD RWY 12/30 PP000
    SPJL 111700Z VRB03KT CAVOK 15/M04 Q1038 RMK BIRD HAZARD RWY 12/30 PP000
    SPJL 111800Z VRB04KT CAVOK 16/M08 Q1037 RMK BIRD HAZARD RWY 12/30 PP000
  • SPME: Tumbes, Peru
    SPME 111500Z 02004KT 9999 BKN022 27/21 Q1013 RMK BIRD HAZARD RWY 32/14 TN22.1 PP000
    SPME 111600Z 35006KT 9999 BKN022 27/21 Q1013 RMK BIRD HAZARD RWY 32/14 PP000
    SPME 111700Z 36007KT 9999 BKN022 28/22 Q1012 RMK BIRD HAZARD RWY 32/14 PP000
    SPME 111800Z 36007KT 9999 SCT020 27/21 Q1012 RMK BIRD HAZARD RWY 32/14 PP000
  • SPMS: Yurimaguas, Peru
    SPMS 111500Z 01003KT 9999 SCT015 BKN070 29/25 Q1016 RMK BIRD HAZARD RWY 09/27 PP000
    SPMS 111600Z 01003KT 9999 SCT020 SCT080 30/24 Q1015 RMK BIRD HAZARD RWY 09/27 PP000
    SPMS 111700Z 05005KT 9999 SCT020 SCT080 32/24 Q1014 RMK BIRD HAZARD RWY 09/27 PP000
    SPMS 111800Z 02003KT 8000 VCSH SCT020 32/24 Q1013 RMK SH W BIRD HAZARD RWY 09/27 PP000
  • SPQT: Iquitos, Peru
    SPQT 111500Z 33003KT 290V360 9999 BKN012 BKN100 28/26 Q1015 NOSIG RMK BIRD HAZARD RWY 06/24 PP000
    SPQT 111600Z VRB02KT 9999 BKN015 BKN100 29/27 Q1015 NOSIG RMK BIRD HAZARD RWY 06/24 PP000
    SPQT 111700Z 04004KT 350V080 9999 VCSH SCT015 FEW018TCU 30/27 Q1014 NOSIG RMK BIRD HAZARD RWY 06/24 TCU SW PP000
    SPQT 111800Z 01006KT 9999 SCT017 FEW020TCU 29/26 Q1013 NOSIG RMK BIRD HAZARD RWY 06/24 PP000
  • SPSO: Pisco, Peru
    SPSO 111500Z 32006KT 5000 BR NSC 18/15 Q1014 RMK BIRD HAZARD RWY 22/04 PP000
    SPSO 111600Z 31008KT 5000 BR NSC 19/15 Q1014 RMK BIRD HAZARD RWY 22/04 PP000
    SPSO 111700Z 29007KT 260V320 5000 BR NSC 19/15 Q1013 RMK BIRD HAZARD RWY 22/04 PP000
    SPSO 111800Z 30008KT 7000 NSC 19/16 Q1013 RMK BR BIRD HAZARD RWY 22/04 PP000
  • SPTU: Puerto Maldonado, Peru
    SPTU 111500Z 32005KT 290V350 9999 SCT014 SCT017 29/26 Q1015 RMK BIRD HAZARD RWY 01/19 PP000
    SPTU 111600Z 31006KT 280V350 9999 VCSH BKN012 31/24 Q1014 RMK SH QUAD N BIRD HAZARD RWY 01/19 PP000
    SPTU 111700Z 35007KT 310V020 9999 VCSH BKN014 31/25 Q1013 RMK SH QUAD W/SW BIRD HAZARD RWY 01/19 PP000
    SPTU 111800Z VRB02KT 9999 BKN015 27/25 Q1013 RMK BIRD HAZARD RWY 01/19 PP096
  • SPUR: Piura, Peru
    SPUR 111500Z 20008KT CAVOK 22/15 Q1015 RMK BIRD HAZARD RWY 19/01 PP000
    SPUR 111600Z 18007KT CAVOK 24/15 Q1015 RMK BIRD HAZARD RWY 19/01 PP000
    SPUR 111700Z 22007KT CAVOK 27/15 Q1014 RMK BIRD HAZARD RWY 19/01 PP000
    SPUR 111800Z 19009KT CAVOK 27/15 Q1013 RMK BIRD HAZARD RWY 19/01 PP000
  • SPYL: Talara, Peru
    SPYL 111500Z /////KT CAVOK 23/17 Q1014 RMK BIRD HAZARD RWY 17/35 PP000
    SPYL 111600Z /////KT CAVOK 25/18 Q1014 RMK BIRD HAZARD RWY 17/35 PP000
    SPYL 111700Z /////KT CAVOK 25/18 Q1013 RMK BIRD HAZARD RWY 17/35 PP000
    SPYL 111800Z /////KT CAVOK 26/18 Q1012 RMK BIRD HAZARD RWY 17/35 PP000
  • SPZO: Cuzco, Peru
    SPZO 111500Z 08003KT 9999 NSC 14/M04 Q1037 NOSIG RMK BIRD HAZARD RWY 10/28 PP000
    SPZO 111530Z 04004KT 340V070 9999 NSC 15/M04 Q1036 NOSIG RMK BIRD HAZARD RWY 10/28
    SPZO 111600Z 36003KT 300V060 9999 NSC 17/M06 Q1035 NOSIG RMK BIRD HAZARD RWY 10/28 PP000
    SPZO 111630Z 35003KT 300V070 9999 NSC 18/M04 Q1034 NOSIG RMK BIRD HAZARD RWY 10/28
    SPZO 111700Z 07003KT 360V150 9999 NSC 20/M05 Q1034 NOSIG RMK BIRD HAZARD RWY 10/28 PP000
    SPZO 111730Z 31004KT 9999 FEW050 21/M03 Q1033 NOSIG RMK BIRD HAZARD RWY 10/28
    SPZO 111800Z 32003KT 9999 FEW050 21/M05 Q1032 NOSIG RMK BIRD HAZARD RWY 10/28 PP000
    SPZO 111830Z VRB02KT 9999 FEW050 21/M05 Q1032 NOSIG RMK BIRD HAZARD RWY 10/28
0 stations reporting volcanic ash

1 station reporting ice crystals/diamond dust

  • NZSP: Amundsen-Scott Stn, Antarctica
    NZSP 111750Z 02010KT 2400 IC BLSN BKN010 M53/ A2877 RMK CLN AIR 02009KT ALL WNDS GRID
0 stations reporting blowing spray

7 stations reporting dust or duststorm

  • DAOR: Bechar, Algeria
    DAOR 111500Z 05003KT 3000 DU FEW033 BKN100 33/M01 Q1011
    DAOR 111600Z 03012KT 3000 DU FEW033 SCT100 34/01 Q1011
  • DRRT: Tahoua, Niger
    DRRT 111700Z 17016KT 3800 DU NSC 33/20 Q1012
  • GAGO: Gao, Mali
    GAGO 111500Z 27006KT 5000 DU NSC 42/17 Q1009 NOSIG
  • OIKO: Minab, Iran
    OIKO 111500Z 15008KT 2500 DU NSC 37/20 Q1001
    OIKO 111600Z 13008KT 2000 DU NSC 37/18 Q1001
    OIKO 111700Z 16006KT 2000 DU NSC 36/20 Q1002
  • OISF: Fasa, Iran
    OISF 111750Z 31033KT 4000 DS SCT035CB BKN200 31/06 Q1014 A2997
    OISF 111800Z 31033KT 4000 DS SCT035CB BKN200 31/06 Q1014 A2997
  • OYAA: Aden, Yemen
    OYAA 111700Z 10006KT 5000 DU FEW040CB 34/27 Q1004 NOSIG
    OYAA 111800Z 10008KT 5000 DU NSC 33/27 Q1004 NOSIG
  • YGLA: Gladstone, Australia
    YGLA 111622Z AUTO 20003KT 0800 DU ////// 14/12 Q1017 RF00.0/000.0 CLD
    YGLA 111630Z AUTO 20003KT 0050 DU ////// 14/12 Q1017 RF00.0/000.0 CLD
    YGLA 111644Z AUTO 21004KT 0050 DU ////// 13/12 Q1017 RF00.0/000.0 CLD
3 stations reporting sand or sandstorm

  • DATM: Bordj Mokhtar, Algeria
    DATM 111500Z 06006KT 010V110 3000 SA NSC 44/// Q1009
    DATM 111600Z 07006KT 4000 SA NSC 44/// Q1008
    DATM 111700Z 11009KT 4000 SA NSC 44/// Q1008
  • DAUH: Hassi-Messaoud, Algeria
    DAUH 111617Z 23019KT 1500 BLSA FEW030TCU SCT040 47/// Q1004
    DAUH 111700Z 21021G31KT 1000 BLSA FEW030TCU SCT040 46/// Q1005
  • OIKB: Bandarabbass, Iran
    OIKB 111505Z 24016KT 2000 SA FEW025CB BKN030 36/27 Q0999 A2952
0 stations reporting well-developed dust/sand whirls

17 stations reporting smoke

  • KNCA: Jacksonville MCAS, NC, United States
    KNCA 111756Z 10SM FU SCT060 29/15 A2987 RMK AO2 SLP116 T02940150 10294 20211 51001
  • KPHL: Philadelphia, Philadelphia Intl Arpt, PA, United States
    KPHL 111836Z 33007KT 10SM FEW003 SCT045 BKN085 BKN260 22/11 A2993 RMK AO2 FU FEW003 T02220106
  • KQJQ: UNKNOWN,
    KQJQ 111755Z OOOOOKT 3SM FU FEW040 RMK SLPNO WND DATA ESTMD ALSTG ESTMD
  • KSLC: Salt Lake City, Salt Lake City Intl Arpt, UT, United States
    KSLC 111554Z VRB03KT 10SM FEW015 26/06 A3008 RMK AO2 SLP130 FU FEW015 FU VC NE T02610056
  • MMMY: Monterrey / Gen Maria, Mexico
    MMMY 111540Z 12003KT 3SM FU HZ SKC 31/21 A2987
  • MMMZ: Mazatlan / G. Buelna, Mexico
    MMMZ 111643Z 20004KT 10SM SCT030 BKN070 29/24 A2978 RMK 8/530 FU SE
  • MMPN: Uruapan / Gen Rayon, Mexico
    MMPN 111540Z 00000KT 6SM BKN300 25/16 A3010 RMK 8/001 HZY FU LWR VSBY 1 QUAD
    MMPN 111640Z 00000KT 6SM BKN300 26/16 A3009 RMK 8/001 HZY FU CU
    MMPN 111740Z 25010KT 6SM BKN300 27/17 A3007 RMK 8/001 HZY FU TCU
  • MMRX: Reynosa Intl Arpt, Mexico
    MMRX 111640Z 22004KT 7SM SCT030 32/23 A2985 RMK 8/100 HZY FU LYR S
  • MMVA: Villahermosa, Mexico
    MMVA 111544Z 21008KT 2 1/2SM FU HZ OVC015 29/25 A2982 RMK 8/6// BINOVC
    MMVA 111644Z 27008KT 3SM FU HZ SCT015 OVC060 31/25 A2982 RMK 8/62/ BINOVC
    MMVA 111743Z 27007KT 3SM FU HZ SCT016 BKN060 32/25 A2981 RMK SLP093 57007 920 8/120 TCU S N
  • PABI: Delta Junction/Ft Greely, AK, United States
    PABI 111453Z 24006KT 10SM SCT041 OVC050 12/09 A2966 RMK AO2 SLP045 FU ALQDS 60000 T01170094 56002
  • PAFB: Wainwright, AK, United States
    PAFB 111519Z 00000KT 4SM -RA FU FEW060 BKN100 14/10 A2963
    PAFB 111519Z 00000KT 4SM -RA FU FEW060 BKN100 14/10 A2963 RMK SLP039 $
    PAFB 111555Z 28003KT 5SM FU BKN055 BKN095 14/10 A2963
    PAFB 111555Z 28003KT 5SM FU BKN055 BKN095 14/10 A2963 RMK AO2A SLP039 T01440100 $
  • PAOR: Northway, Northway Airport, AK, United States
    PAOR 111453Z AUTO 00000KT 8SM FU BKN085 BKN100 14/07 A2958
    PAOR 111453Z AUTO 00000KT 8SM FU BKN085 BKN100 14/07 A2958 RMK AO2 SLP011 6//// T01390072 55000 TSNO PNO $
  • SBCR: Corumba, Brazil
    SBCR 111500Z 04009KT 4000 FU NSC 32/17 Q1016
    SBCR 111600Z 03009KT 4000 FU NSC 34/16 Q1015
  • SLPS: Puerto Suarez, Bolivia
    SLPS 111500Z 09005KT 5000 FU NSC 33/22 Q1018
    SLPS 111600Z 09007KT 5000 FU FEW020 35/21 Q1017
  • UEEE: Jakutsk, Russia
    UEEE 111500Z 21002MPS 5000 FU NSC 14/09 Q1008 R23/09//61 NOSIG RMK QFE747
    UEEE 111530Z 27001MPS 5000 FU NSC 13/08 Q1008 R23/09//61 NOSIG RMK QFE747
  • VAAH: Ahmadabad, India
    VAAH 111500Z 18006G16KT 4000 FU SCT080 34/23 Q1002 NOSIG
    VAAH 111530Z 18006G16KT 4000 FU SCT080 33/24 Q1003 NOSIG
    VAAH 111600Z 17011KT 4000 FU FEW080 33/24 Q1003 NOSIG
    VAAH 111630Z 16012KT 4000 FU SCT100 33/24 Q1003 NOSIG
    VAAH 111700Z 15009KT 4000 FU FEW100 33/23 Q1004 NOSIG
    VAAH 111730Z 17008KT 4000 FU BKN100 33/23 Q1004 NOSIG
    VAAH 111800Z 18010KT 4000 FU SCT100 32/24 Q1004 NOSIG
    VAAH 111830Z 19007KT 4000 FU FEW100 32/24 Q1004 NOSIG
  • VABO: Vadodara, India
    VABO 111500Z 23020KT 5000 FU FEW080 34/24 Q1002 NOSIG


Stations falling into 5 or more extreme categories

Stations falling into 4 extreme categories

  • KAPF: Naples, Naples Municipal Airport, FL, United States
        Dewpoint, Precipitation Type/Intensity, Hourly Precip Total, 3/6-Hourly Precip Total
  • KXMR: Cape Kennedy, FL, United States
        Dewpoint, Precipitation Type/Intensity, Hourly Precip Total, Thunderstorm
Stations falling into 3 extreme categories

  • KFLL: Fort Lauderdale/Hollywood, FL, United States
        Dewpoint, Precipitation Type/Intensity, Thunderstorm
  • KLBX: Angleton, TX, United States
        Dewpoint, Precipitation Type/Intensity, Hourly Precip Total
  • KMWL: Mineral Wells, Mineral Wells Airport, TX, United States
        Precipitation Type/Intensity, Hourly Precip Total, Thunderstorm
  • KOPF: Miami, Opa Locka Airport, FL, United States
        Dewpoint, Precipitation Type/Intensity, Hourly Precip Total
  • KSPG: St. Petersburg, Whitted Airport, FL, United States
        Dewpoint, Precipitation Type/Intensity, Thunderstorm
  • KTMB: Miami, Kendall-Tamiami Executive Airport, FL, United States
        Dewpoint, Precipitation Type/Intensity, Thunderstorm
  • KTTS: NASA Shuttle Facility, FL, United States
        Precipitation Type/Intensity, Hourly Precip Total, Thunderstorm
  • KVRB: Vero Beach, FL, United States
        Dewpoint, Precipitation Type/Intensity, Thunderstorm
  • MMTL: Tulancingo, Mexico
        Dewpoint, Precipitation Type/Intensity, 3/6-Hourly Precip Total
Stations falling into 2 extreme categories

  • EFKS: Kuusamo, Finland
        Precipitation Type/Intensity, Thunderstorm
  • GAGO: Gao, Mali
        Temperature, Dust/Duststorm
  • K6P9: Ranger, TX, United States
        Precipitation Type/Intensity, Hourly Precip Total
  • KAAF: Apalachicola, Apalachicola, FL, United States
        Dewpoint, Precipitation Type/Intensity
  • KBKV: Brooksville, Hernando County Airport, FL, United States
        Dewpoint, Precipitation Type/Intensity
  • KCGC: Crystal River, FL, United States
        Precipitation Type/Intensity, Hourly Precip Total
  • KEYW: Key West, Key West Intl Arpt, FL, United States
        Dewpoint, Precipitation Type/Intensity
  • KF45: North Palm Beach County AP, FL, United States
        Dewpoint, Thunderstorm
  • KFXE: Fort Lauderdale, FL, United States
        Dewpoint, Precipitation Type/Intensity
  • KHST: Homestead AFB, FL, United States
        Dewpoint, Thunderstorm
  • KINF: Inverness, FL, United States
        Dewpoint, Precipitation Type/Intensity
  • KISM: Orlando, Kissimmee Municipal Airport, FL, United States
        Hourly Precip Total, Thunderstorm
  • KMIA: Miami, Miami Intl Arpt, FL, United States
        Dewpoint, Precipitation Type/Intensity
  • KMKN: Comanche, Comanche County-City Airport, TX, United States
        Hourly Precip Total, Thunderstorm
  • KPBI: West Palm Beach, FL, United States
        Dewpoint, Thunderstorm
  • KPIE: St. Petersburg / Clearwater, FL, United States
        Dewpoint, Precipitation Type/Intensity
  • KPMP: Pompano Beach, FL, United States
        Precipitation Type/Intensity, Hourly Precip Total
  • KSFB: Sanford, FL, United States
        Dewpoint, Thunderstorm
  • KTPA: Tampa, Tampa Intl Arpt, FL, United States
        Dewpoint, Thunderstorm
  • MNBL: Bluefields, Nicaragua
        Dewpoint, Thunderstorm
  • MPMG: Marcos A. Gelabert, Panama
        Dewpoint, Thunderstorm
  • MPTO: Tocumen, Panama
        Dewpoint, Thunderstorm
  • MUHA: Habana, Cuba
        Dewpoint, Precipitation Type/Intensity
  • NZSP: Amundsen-Scott Stn, Antarctica
        Temperature, Ice Crystals/Diamond Dust
  • OEDR: Dhahran, Saudi Arabia
        Temperature, Dewpoint
  • OIKB: Bandarabbass, Iran
        Dewpoint, Sand/Sandstorm
  • OYAA: Aden, Yemen
        Dewpoint, Dust/Duststorm
  • ROAH: Naha Airport, Japan
        Precipitation Type/Intensity, Thunderstorm
  • SBOI: Oiapoque, Brazil
        Dewpoint, Thunderstorm
  • SMJP: Johan A. Pengel, Suriname
        Precipitation Type/Intensity, Thunderstorm
  • SPHY: Andahuayla, Peru
        Pressure, Bird Hazard
  • SPJL: Juliaca, Peru
        Pressure, Bird Hazard
  • SPQT: Iquitos, Peru
        Dewpoint, Bird Hazard
  • SPTU: Puerto Maldonado, Peru
        Dewpoint, Bird Hazard
  • SPZO: Cuzco, Peru
        Pressure, Bird Hazard
  • TXKF: Bermuda, Bermuda
        Dewpoint, Precipitation Type/Intensity
  • VOMM: Madras / Minambakkam, India
        Dewpoint, Thunderstorm
  • YGLA: Gladstone, Australia
        Visibility, Dust/Duststorm


101 unidentified stations (out of a total of 165 documented unknown stations)

  • BK12 (NEW)
  • ENUN (OLD)
  • EQPH (OLD)
  • EQYE (OLD)
  • EQYF (OLD)
  • EQYT (OLD)
  • EQYV (OLD)
  • FCOD (NEW)
  • HESX (NEW)
  • HKGO (OLD)
  • HTIB (OLD)
  • K0D8 (NEW)
  • K0W3 (NEW)
  • K10U (NEW)
  • K1B9 (NEW)
  • K1D8 (NEW)
  • K1K8 (NEW)
  • K2M8 (NEW)
  • K2R2 (NEW)
  • K3K7 (NEW)
  • K3W7 (NEW)
  • K42A (NEW)
  • K49B (NEW)
  • K4B8 (NEW)
  • K60R (NEW)
  • K8V7 (NEW)
  • K9Y1 (NEW)
  • KACZ (NEW)
  • KANR (NEW)
  • KBFA (NEW)
  • KC08 (NEW)
  • KCPP (NEW)
  • KCSB (NEW)
  • KD09 (NEW)
  • KDRP (NEW)
  • KE01 (NEW)
  • KE57 (NEW)
  • KE77 (NEW)
  • KETO (NEW)
  • KF95 (NEW)
  • KFOM (NEW)
  • KGDK (NEW)
  • KHVC (NEW)
  • KI40 (NEW)
  • KI95 (NEW)
  • KK83 (NEW)
  • KMCZ (NEW)
  • KMKQ (NEW)
  • KN79 (NEW)
  • KOYE (NEW)
  • KP79 (NEW)
  • KQA8 (OLD)
  • KQAL (OLD)
  • KQB3 (OLD)
  • KQCG (OLD)
  • KQD3 (OLD)
  • KQEK (OLD)
  • KQFL (OLD)
  • KQGE (OLD)
  • KQHB (OLD)
  • KQHC (OLD)
  • KQJQ (NEW)
  • KQOA (OLD)
  • KQOO (NEW)
  • KQRD (OLD)
  • KQRP (NEW)
  • KQWX (OLD)
  • KQWY (NEW)
  • KQX2 (OLD)
  • KQXH (OLD)
  • KS12 (NEW)
  • KSBX (NEW)
  • KTQV (OLD)
  • KU64 (NEW)
  • KUWL (NEW)
  • KVGN (NEW)
  • KXIF (OLD)
  • LETU (OLD)
  • LIRY (NEW)
  • LRBV (NEW)
  • LTFO (OLD)
  • MGMT (OLD)
  • MGTU (OLD)
  • MMGA (NEW)
  • NZQN (NEW)
  • OEAR (OLD)
  • OEMN (NEW)
  • OERS (NEW)
  • OKKK (NEW)
  • PACX (NEW)
  • PANU (NEW)
  • PAPE (NEW)
  • PFKO (NEW)
  • PFTO (NEW)
  • PFZK (NEW)
  • UBBZ (NEW)
  • VAHS (NEW)
  • VDSA (NEW)
  • VOGA (NEW)
  • WILL (NEW)
  • YBSU (NEW)